<?xml version="1.0" encoding="UTF-8" standalone="no" ?>
<gpx xmlns="http://www.topografix.com/GPX/1/1" xmlns:xsi="http://www.w3.org/2001/XMLSchema-instance" xsi:schemaLocation="http://www.topografix.com/GPX/1/1 http://www.topografix.com/GPX/1/1/gpx.xsd" version="1.1" creator="VisuGPX - https://www.visugpx.com">
  <metadata>
    <name>15/10/2012_Angers_Partie_1</name>
    <desc><![CDATA[15/10/2012_Angers_Partie_1]]></desc>
  </metadata>
  <trk>
    <name><![CDATA[Angers_1 13/10/2012]]></name>
    <trkseg>
      <trkpt lat="47.45523" lon="-0.59558">
        <ele>22</ele>
        <time>2012-10-13T06:52:18Z</time>
      </trkpt>
      <trkpt lat="47.45523" lon="-0.59558">
        <ele>66.519</ele>
        <time>2012-10-13T06:52:21Z</time>
      </trkpt>
      <trkpt lat="47.45523" lon="-0.59558">
        <ele>22</ele>
        <time>2012-10-13T06:52:26Z</time>
      </trkpt>
      <trkpt lat="47.45523" lon="-0.59558">
        <ele>22</ele>
        <time>2012-10-13T06:52:34Z</time>
      </trkpt>
      <trkpt lat="47.4552" lon="-0.59558">
        <ele>64.5034</ele>
        <time>2012-10-13T06:52:34Z</time>
      </trkpt>
      <trkpt lat="47.45499" lon="-0.59547">
        <ele>67.4664</ele>
        <time>2012-10-13T06:55:58Z</time>
      </trkpt>
      <trkpt lat="47.45479" lon="-0.59501">
        <ele>67.3448</ele>
        <time>2012-10-13T06:56:16Z</time>
      </trkpt>
      <trkpt lat="47.45465" lon="-0.59465">
        <ele>68.2968</ele>
        <time>2012-10-13T06:56:25Z</time>
      </trkpt>
      <trkpt lat="47.45444" lon="-0.5944">
        <ele>70.3734</ele>
        <time>2012-10-13T06:56:33Z</time>
      </trkpt>
      <trkpt lat="47.45424" lon="-0.5943">
        <ele>66.9914</ele>
        <time>2012-10-13T06:56:39Z</time>
      </trkpt>
      <trkpt lat="47.45404" lon="-0.59427">
        <ele>63.1776</ele>
        <time>2012-10-13T06:56:45Z</time>
      </trkpt>
      <trkpt lat="47.45378" lon="-0.59428">
        <ele>59.7159</ele>
        <time>2012-10-13T06:56:53Z</time>
      </trkpt>
      <trkpt lat="47.45346" lon="-0.59426">
        <ele>55.1547</ele>
        <time>2012-10-13T06:57:03Z</time>
      </trkpt>
      <trkpt lat="47.45328" lon="-0.59429">
        <ele>50.9647</ele>
        <time>2012-10-13T06:57:09Z</time>
      </trkpt>
      <trkpt lat="47.4531" lon="-0.59431">
        <ele>45.0126</ele>
        <time>2012-10-13T06:57:17Z</time>
      </trkpt>
      <trkpt lat="47.45287" lon="-0.59435">
        <ele>46.3127</ele>
        <time>2012-10-13T06:57:25Z</time>
      </trkpt>
      <trkpt lat="47.45261" lon="-0.59458">
        <ele>44.1087</ele>
        <time>2012-10-13T06:57:34Z</time>
      </trkpt>
      <trkpt lat="47.45224" lon="-0.59472">
        <ele>41.108</ele>
        <time>2012-10-13T06:57:44Z</time>
      </trkpt>
      <trkpt lat="47.45203" lon="-0.59476">
        <ele>41.9104</ele>
        <time>2012-10-13T06:57:50Z</time>
      </trkpt>
      <trkpt lat="47.45178" lon="-0.5947">
        <ele>47.8813</ele>
        <time>2012-10-13T06:57:58Z</time>
      </trkpt>
      <trkpt lat="47.45159" lon="-0.59467">
        <ele>50.8062</ele>
        <time>2012-10-13T06:58:04Z</time>
      </trkpt>
      <trkpt lat="47.45134" lon="-0.5945">
        <ele>53.6988</ele>
        <time>2012-10-13T06:58:14Z</time>
      </trkpt>
      <trkpt lat="47.45115" lon="-0.5944">
        <ele>56.852</ele>
        <time>2012-10-13T06:58:23Z</time>
      </trkpt>
      <trkpt lat="47.45095" lon="-0.59441">
        <ele>56.2178</ele>
        <time>2012-10-13T06:58:33Z</time>
      </trkpt>
      <trkpt lat="47.45072" lon="-0.59443">
        <ele>57.3293</ele>
        <time>2012-10-13T06:58:44Z</time>
      </trkpt>
      <trkpt lat="47.45051" lon="-0.59445">
        <ele>56.6387</ele>
        <time>2012-10-13T06:58:53Z</time>
      </trkpt>
      <trkpt lat="47.45029" lon="-0.59443">
        <ele>56.9122</ele>
        <time>2012-10-13T06:59:03Z</time>
      </trkpt>
      <trkpt lat="47.45002" lon="-0.59423">
        <ele>49.7373</ele>
        <time>2012-10-13T06:59:14Z</time>
      </trkpt>
      <trkpt lat="47.44983" lon="-0.59424">
        <ele>50.1058</ele>
        <time>2012-10-13T06:59:25Z</time>
      </trkpt>
      <trkpt lat="47.44961" lon="-0.59452">
        <ele>52.686</ele>
        <time>2012-10-13T06:59:36Z</time>
      </trkpt>
      <trkpt lat="47.44935" lon="-0.59476">
        <ele>54.3529</ele>
        <time>2012-10-13T06:59:47Z</time>
      </trkpt>
      <trkpt lat="47.44889" lon="-0.59506">
        <ele>56.6717</ele>
        <time>2012-10-13T07:00:01Z</time>
      </trkpt>
      <trkpt lat="47.44871" lon="-0.5951">
        <ele>59.7992</ele>
        <time>2012-10-13T07:00:07Z</time>
      </trkpt>
      <trkpt lat="47.4485" lon="-0.59524">
        <ele>62.4592</ele>
        <time>2012-10-13T07:00:15Z</time>
      </trkpt>
      <trkpt lat="47.44827" lon="-0.59534">
        <ele>59.6942</ele>
        <time>2012-10-13T07:00:24Z</time>
      </trkpt>
      <trkpt lat="47.44793" lon="-0.59542">
        <ele>59.8397</ele>
        <time>2012-10-13T07:00:36Z</time>
      </trkpt>
      <trkpt lat="47.44769" lon="-0.59553">
        <ele>58.543</ele>
        <time>2012-10-13T07:00:44Z</time>
      </trkpt>
      <trkpt lat="47.44749" lon="-0.59563">
        <ele>58.3793</ele>
        <time>2012-10-13T07:00:53Z</time>
      </trkpt>
      <trkpt lat="47.44703" lon="-0.59573">
        <ele>58.87</ele>
        <time>2012-10-13T07:01:07Z</time>
      </trkpt>
      <trkpt lat="47.44682" lon="-0.59582">
        <ele>56.783</ele>
        <time>2012-10-13T07:01:17Z</time>
      </trkpt>
      <trkpt lat="47.44664" lon="-0.59594">
        <ele>56.8921</ele>
        <time>2012-10-13T07:01:23Z</time>
      </trkpt>
      <trkpt lat="47.44641" lon="-0.59601">
        <ele>56.1297</ele>
        <time>2012-10-13T07:01:31Z</time>
      </trkpt>
      <trkpt lat="47.44623" lon="-0.59611">
        <ele>53.0241</ele>
        <time>2012-10-13T07:01:37Z</time>
      </trkpt>
      <trkpt lat="47.44609" lon="-0.59629">
        <ele>49.9317</ele>
        <time>2012-10-13T07:01:44Z</time>
      </trkpt>
      <trkpt lat="47.44588" lon="-0.5964">
        <ele>45.9041</ele>
        <time>2012-10-13T07:01:51Z</time>
      </trkpt>
      <trkpt lat="47.44551" lon="-0.59669">
        <ele>42.0935</ele>
        <time>2012-10-13T07:01:59Z</time>
      </trkpt>
      <trkpt lat="47.4454" lon="-0.59689">
        <ele>38.8729</ele>
        <time>2012-10-13T07:02:06Z</time>
      </trkpt>
      <trkpt lat="47.44525" lon="-0.59692">
        <ele>38.5879</ele>
        <time>2012-10-13T07:02:12Z</time>
      </trkpt>
      <trkpt lat="47.44497" lon="-0.5971">
        <ele>37.7383</ele>
        <time>2012-10-13T07:02:19Z</time>
      </trkpt>
      <trkpt lat="47.4448" lon="-0.59717">
        <ele>37.493</ele>
        <time>2012-10-13T07:02:32Z</time>
      </trkpt>
      <trkpt lat="47.44461" lon="-0.59743">
        <ele>62.8691</ele>
        <time>2012-10-13T07:03:49Z</time>
      </trkpt>
      <trkpt lat="47.44453" lon="-0.59721">
        <ele>67.9924</ele>
        <time>2012-10-13T07:04:07Z</time>
      </trkpt>
      <trkpt lat="47.44432" lon="-0.59672">
        <ele>68.1821</ele>
        <time>2012-10-13T07:04:25Z</time>
      </trkpt>
      <trkpt lat="47.4442" lon="-0.59628">
        <ele>65.1149</ele>
        <time>2012-10-13T07:04:33Z</time>
      </trkpt>
      <trkpt lat="47.44412" lon="-0.59599">
        <ele>64.7322</ele>
        <time>2012-10-13T07:04:38Z</time>
      </trkpt>
      <trkpt lat="47.444" lon="-0.59536">
        <ele>64.3832</ele>
        <time>2012-10-13T07:04:48Z</time>
      </trkpt>
      <trkpt lat="47.44393" lon="-0.59515">
        <ele>63.889</ele>
        <time>2012-10-13T07:04:53Z</time>
      </trkpt>
      <trkpt lat="47.44379" lon="-0.5946">
        <ele>61.8775</ele>
        <time>2012-10-13T07:05:03Z</time>
      </trkpt>
      <trkpt lat="47.4437" lon="-0.59409">
        <ele>63.6111</ele>
        <time>2012-10-13T07:05:09Z</time>
      </trkpt>
      <trkpt lat="47.44367" lon="-0.59377">
        <ele>64.0846</ele>
        <time>2012-10-13T07:05:14Z</time>
      </trkpt>
      <trkpt lat="47.44361" lon="-0.59336">
        <ele>64.4353</ele>
        <time>2012-10-13T07:05:21Z</time>
      </trkpt>
      <trkpt lat="47.44358" lon="-0.59297">
        <ele>60.6095</ele>
        <time>2012-10-13T07:05:27Z</time>
      </trkpt>
      <trkpt lat="47.44359" lon="-0.59229">
        <ele>60.746</ele>
        <time>2012-10-13T07:05:36Z</time>
      </trkpt>
      <trkpt lat="47.44362" lon="-0.59195">
        <ele>60.1497</ele>
        <time>2012-10-13T07:05:41Z</time>
      </trkpt>
      <trkpt lat="47.44359" lon="-0.59148">
        <ele>59.0844</ele>
        <time>2012-10-13T07:05:47Z</time>
      </trkpt>
      <trkpt lat="47.44357" lon="-0.591">
        <ele>65.288</ele>
        <time>2012-10-13T07:05:54Z</time>
      </trkpt>
      <trkpt lat="47.44358" lon="-0.59064">
        <ele>63.1722</ele>
        <time>2012-10-13T07:06:00Z</time>
      </trkpt>
      <trkpt lat="47.44359" lon="-0.59015">
        <ele>59.3994</ele>
        <time>2012-10-13T07:06:10Z</time>
      </trkpt>
      <trkpt lat="47.44358" lon="-0.58966">
        <ele>56.1851</ele>
        <time>2012-10-13T07:06:20Z</time>
      </trkpt>
      <trkpt lat="47.44358" lon="-0.58966">
        <ele>56.1851</ele>
        <time>2012-10-13T07:06:25Z</time>
      </trkpt>
      <trkpt lat="47.44348" lon="-0.59016">
        <ele>51.2812</ele>
        <time>2012-10-13T07:06:33Z</time>
      </trkpt>
      <trkpt lat="47.44312" lon="-0.59025">
        <ele>46.7707</ele>
        <time>2012-10-13T07:06:45Z</time>
      </trkpt>
      <trkpt lat="47.4429" lon="-0.5903">
        <ele>44.4439</ele>
        <time>2012-10-13T07:06:52Z</time>
      </trkpt>
      <trkpt lat="47.44263" lon="-0.59042">
        <ele>44.7358</ele>
        <time>2012-10-13T07:07:01Z</time>
      </trkpt>
      <trkpt lat="47.44234" lon="-0.59051">
        <ele>39.6162</ele>
        <time>2012-10-13T07:07:09Z</time>
      </trkpt>
      <trkpt lat="47.44211" lon="-0.59054">
        <ele>38.8164</ele>
        <time>2012-10-13T07:07:15Z</time>
      </trkpt>
      <trkpt lat="47.44178" lon="-0.59053">
        <ele>38.7647</ele>
        <time>2012-10-13T07:07:23Z</time>
      </trkpt>
      <trkpt lat="47.4414" lon="-0.59062">
        <ele>38.8437</ele>
        <time>2012-10-13T07:07:32Z</time>
      </trkpt>
      <trkpt lat="47.44103" lon="-0.59065">
        <ele>32.5604</ele>
        <time>2012-10-13T07:07:39Z</time>
      </trkpt>
      <trkpt lat="47.44063" lon="-0.59054">
        <ele>31.7331</ele>
        <time>2012-10-13T07:07:45Z</time>
      </trkpt>
      <trkpt lat="47.44036" lon="-0.59052">
        <ele>32.0547</ele>
        <time>2012-10-13T07:07:50Z</time>
      </trkpt>
      <trkpt lat="47.43997" lon="-0.59056">
        <ele>28.0106</ele>
        <time>2012-10-13T07:07:57Z</time>
      </trkpt>
      <trkpt lat="47.43975" lon="-0.59061">
        <ele>28.7037</ele>
        <time>2012-10-13T07:08:03Z</time>
      </trkpt>
      <trkpt lat="47.43947" lon="-0.59054">
        <ele>25.8224</ele>
        <time>2012-10-13T07:08:09Z</time>
      </trkpt>
      <trkpt lat="47.43924" lon="-0.59038">
        <ele>32.1162</ele>
        <time>2012-10-13T07:08:17Z</time>
      </trkpt>
      <trkpt lat="47.43888" lon="-0.59023">
        <ele>50.5885</ele>
        <time>2012-10-13T07:08:27Z</time>
      </trkpt>
      <trkpt lat="47.43877" lon="-0.59024">
        <ele>53.4274</ele>
        <time>2012-10-13T07:08:33Z</time>
      </trkpt>
      <trkpt lat="47.43859" lon="-0.59031">
        <ele>54.826</ele>
        <time>2012-10-13T07:08:41Z</time>
      </trkpt>
      <trkpt lat="47.43837" lon="-0.59039">
        <ele>56.1154</ele>
        <time>2012-10-13T07:08:47Z</time>
      </trkpt>
      <trkpt lat="47.4382" lon="-0.59046">
        <ele>57.0457</ele>
        <time>2012-10-13T07:08:53Z</time>
      </trkpt>
      <trkpt lat="47.43802" lon="-0.59046">
        <ele>55.9355</ele>
        <time>2012-10-13T07:08:59Z</time>
      </trkpt>
      <trkpt lat="47.43756" lon="-0.5906">
        <ele>57.1779</ele>
        <time>2012-10-13T07:09:07Z</time>
      </trkpt>
      <trkpt lat="47.43726" lon="-0.59071">
        <ele>55.9838</ele>
        <time>2012-10-13T07:09:12Z</time>
      </trkpt>
      <trkpt lat="47.43707" lon="-0.59076">
        <ele>53.5818</ele>
        <time>2012-10-13T07:09:17Z</time>
      </trkpt>
      <trkpt lat="47.4368" lon="-0.59075">
        <ele>48.9422</ele>
        <time>2012-10-13T07:09:25Z</time>
      </trkpt>
      <trkpt lat="47.43649" lon="-0.59076">
        <ele>46.6924</ele>
        <time>2012-10-13T07:09:33Z</time>
      </trkpt>
      <trkpt lat="47.43627" lon="-0.59078">
        <ele>44.8453</ele>
        <time>2012-10-13T07:09:38Z</time>
      </trkpt>
      <trkpt lat="47.43579" lon="-0.59077">
        <ele>42.4011</ele>
        <time>2012-10-13T07:09:44Z</time>
      </trkpt>
      <trkpt lat="47.43542" lon="-0.59081">
        <ele>39.7119</ele>
        <time>2012-10-13T07:09:50Z</time>
      </trkpt>
      <trkpt lat="47.43503" lon="-0.59084">
        <ele>39.262</ele>
        <time>2012-10-13T07:09:57Z</time>
      </trkpt>
      <trkpt lat="47.43474" lon="-0.59094">
        <ele>42.3572</ele>
        <time>2012-10-13T07:10:02Z</time>
      </trkpt>
      <trkpt lat="47.4345" lon="-0.591">
        <ele>41.965</ele>
        <time>2012-10-13T07:10:07Z</time>
      </trkpt>
      <trkpt lat="47.43421" lon="-0.59109">
        <ele>38.8754</ele>
        <time>2012-10-13T07:10:15Z</time>
      </trkpt>
      <trkpt lat="47.43388" lon="-0.59124">
        <ele>36.4654</ele>
        <time>2012-10-13T07:10:24Z</time>
      </trkpt>
      <trkpt lat="47.43362" lon="-0.59119">
        <ele>36.9361</ele>
        <time>2012-10-13T07:10:29Z</time>
      </trkpt>
      <trkpt lat="47.4334" lon="-0.59135">
        <ele>34.7257</ele>
        <time>2012-10-13T07:10:35Z</time>
      </trkpt>
      <trkpt lat="47.43322" lon="-0.59158">
        <ele>33.2031</ele>
        <time>2012-10-13T07:10:41Z</time>
      </trkpt>
      <trkpt lat="47.43297" lon="-0.59185">
        <ele>35.6139</ele>
        <time>2012-10-13T07:10:48Z</time>
      </trkpt>
      <trkpt lat="47.43257" lon="-0.59208">
        <ele>38.887</ele>
        <time>2012-10-13T07:10:55Z</time>
      </trkpt>
      <trkpt lat="47.4324" lon="-0.59221">
        <ele>40.7465</ele>
        <time>2012-10-13T07:11:01Z</time>
      </trkpt>
      <trkpt lat="47.43194" lon="-0.59249">
        <ele>49.7534</ele>
        <time>2012-10-13T07:11:11Z</time>
      </trkpt>
      <trkpt lat="47.43164" lon="-0.59274">
        <ele>52.9217</ele>
        <time>2012-10-13T07:11:17Z</time>
      </trkpt>
      <trkpt lat="47.43135" lon="-0.59292">
        <ele>54.5471</ele>
        <time>2012-10-13T07:11:24Z</time>
      </trkpt>
      <trkpt lat="47.43108" lon="-0.59309">
        <ele>54.405</ele>
        <time>2012-10-13T07:11:30Z</time>
      </trkpt>
      <trkpt lat="47.43076" lon="-0.59325">
        <ele>57.801</ele>
        <time>2012-10-13T07:11:36Z</time>
      </trkpt>
      <trkpt lat="47.43047" lon="-0.59344">
        <ele>66.0233</ele>
        <time>2012-10-13T07:11:43Z</time>
      </trkpt>
      <trkpt lat="47.4301" lon="-0.59361">
        <ele>70.9514</ele>
        <time>2012-10-13T07:11:49Z</time>
      </trkpt>
      <trkpt lat="47.42977" lon="-0.59381">
        <ele>73.5284</ele>
        <time>2012-10-13T07:11:56Z</time>
      </trkpt>
      <trkpt lat="47.42941" lon="-0.59396">
        <ele>76.7469</ele>
        <time>2012-10-13T07:12:03Z</time>
      </trkpt>
      <trkpt lat="47.42908" lon="-0.59414">
        <ele>77.1808</ele>
        <time>2012-10-13T07:12:10Z</time>
      </trkpt>
      <trkpt lat="47.42871" lon="-0.59428">
        <ele>79.8643</ele>
        <time>2012-10-13T07:12:17Z</time>
      </trkpt>
      <trkpt lat="47.42844" lon="-0.59436">
        <ele>80.7814</ele>
        <time>2012-10-13T07:12:22Z</time>
      </trkpt>
      <trkpt lat="47.428" lon="-0.5946">
        <ele>83.3412</ele>
        <time>2012-10-13T07:12:29Z</time>
      </trkpt>
      <trkpt lat="47.42783" lon="-0.59497">
        <ele>83.1299</ele>
        <time>2012-10-13T07:12:35Z</time>
      </trkpt>
      <trkpt lat="47.42769" lon="-0.59536">
        <ele>83.5874</ele>
        <time>2012-10-13T07:12:41Z</time>
      </trkpt>
      <trkpt lat="47.42762" lon="-0.59567">
        <ele>82.5772</ele>
        <time>2012-10-13T07:12:47Z</time>
      </trkpt>
      <trkpt lat="47.42752" lon="-0.596">
        <ele>80.6819</ele>
        <time>2012-10-13T07:12:53Z</time>
      </trkpt>
      <trkpt lat="47.42732" lon="-0.59649">
        <ele>77.9207</ele>
        <time>2012-10-13T07:13:00Z</time>
      </trkpt>
      <trkpt lat="47.42719" lon="-0.59688">
        <ele>75.5342</ele>
        <time>2012-10-13T07:13:05Z</time>
      </trkpt>
      <trkpt lat="47.427" lon="-0.59746">
        <ele>72.1766</ele>
        <time>2012-10-13T07:13:11Z</time>
      </trkpt>
      <trkpt lat="47.42686" lon="-0.59796">
        <ele>70.8333</ele>
        <time>2012-10-13T07:13:17Z</time>
      </trkpt>
      <trkpt lat="47.42674" lon="-0.59856">
        <ele>69.3994</ele>
        <time>2012-10-13T07:13:24Z</time>
      </trkpt>
      <trkpt lat="47.42667" lon="-0.59901">
        <ele>68.3487</ele>
        <time>2012-10-13T07:13:29Z</time>
      </trkpt>
      <trkpt lat="47.4266" lon="-0.59936">
        <ele>66.9622</ele>
        <time>2012-10-13T07:13:34Z</time>
      </trkpt>
      <trkpt lat="47.42648" lon="-0.6">
        <ele>62.5944</ele>
        <time>2012-10-13T07:13:42Z</time>
      </trkpt>
      <trkpt lat="47.42637" lon="-0.6005">
        <ele>60.4503</ele>
        <time>2012-10-13T07:13:48Z</time>
      </trkpt>
      <trkpt lat="47.42629" lon="-0.60094">
        <ele>59.287</ele>
        <time>2012-10-13T07:13:53Z</time>
      </trkpt>
      <trkpt lat="47.42619" lon="-0.6014">
        <ele>57.8907</ele>
        <time>2012-10-13T07:13:59Z</time>
      </trkpt>
      <trkpt lat="47.42616" lon="-0.60178">
        <ele>56.9119</ele>
        <time>2012-10-13T07:14:04Z</time>
      </trkpt>
      <trkpt lat="47.42609" lon="-0.60224">
        <ele>55.9954</ele>
        <time>2012-10-13T07:14:10Z</time>
      </trkpt>
      <trkpt lat="47.42608" lon="-0.60254">
        <ele>54.5047</ele>
        <time>2012-10-13T07:14:16Z</time>
      </trkpt>
      <trkpt lat="47.42605" lon="-0.60267">
        <ele>53.2629</ele>
        <time>2012-10-13T07:14:23Z</time>
      </trkpt>
      <trkpt lat="47.42605" lon="-0.60277">
        <ele>53.6452</ele>
        <time>2012-10-13T07:14:28Z</time>
      </trkpt>
      <trkpt lat="47.42601" lon="-0.60254">
        <ele>55.8382</ele>
        <time>2012-10-13T07:15:39Z</time>
      </trkpt>
      <trkpt lat="47.42604" lon="-0.60231">
        <ele>55.5875</ele>
        <time>2012-10-13T07:15:45Z</time>
      </trkpt>
      <trkpt lat="47.42605" lon="-0.60206">
        <ele>57.1569</ele>
        <time>2012-10-13T07:15:51Z</time>
      </trkpt>
      <trkpt lat="47.4261" lon="-0.6018">
        <ele>58.608</ele>
        <time>2012-10-13T07:15:57Z</time>
      </trkpt>
      <trkpt lat="47.42617" lon="-0.60142">
        <ele>56.4335</ele>
        <time>2012-10-13T07:16:05Z</time>
      </trkpt>
      <trkpt lat="47.42622" lon="-0.60103">
        <ele>53.4722</ele>
        <time>2012-10-13T07:16:13Z</time>
      </trkpt>
      <trkpt lat="47.42626" lon="-0.60061">
        <ele>49.0435</ele>
        <time>2012-10-13T07:16:20Z</time>
      </trkpt>
      <trkpt lat="47.42632" lon="-0.60024">
        <ele>49.6258</ele>
        <time>2012-10-13T07:16:26Z</time>
      </trkpt>
      <trkpt lat="47.4264" lon="-0.5997">
        <ele>49.4121</ele>
        <time>2012-10-13T07:16:34Z</time>
      </trkpt>
      <trkpt lat="47.42644" lon="-0.59932">
        <ele>49.7256</ele>
        <time>2012-10-13T07:16:40Z</time>
      </trkpt>
      <trkpt lat="47.42649" lon="-0.59903">
        <ele>45.9867</ele>
        <time>2012-10-13T07:16:45Z</time>
      </trkpt>
      <trkpt lat="47.42656" lon="-0.59865">
        <ele>43.7648</ele>
        <time>2012-10-13T07:16:51Z</time>
      </trkpt>
      <trkpt lat="47.42664" lon="-0.59822">
        <ele>42.0876</ele>
        <time>2012-10-13T07:16:58Z</time>
      </trkpt>
      <trkpt lat="47.4267" lon="-0.59778">
        <ele>39.9417</ele>
        <time>2012-10-13T07:17:05Z</time>
      </trkpt>
      <trkpt lat="47.4268" lon="-0.59737">
        <ele>37.2931</ele>
        <time>2012-10-13T07:17:11Z</time>
      </trkpt>
      <trkpt lat="47.42694" lon="-0.59692">
        <ele>33.7885</ele>
        <time>2012-10-13T07:17:18Z</time>
      </trkpt>
      <trkpt lat="47.42701" lon="-0.59655">
        <ele>33.7198</ele>
        <time>2012-10-13T07:17:24Z</time>
      </trkpt>
      <trkpt lat="47.42716" lon="-0.59615">
        <ele>41.4855</ele>
        <time>2012-10-13T07:17:30Z</time>
      </trkpt>
      <trkpt lat="47.42736" lon="-0.5957">
        <ele>43.492</ele>
        <time>2012-10-13T07:17:37Z</time>
      </trkpt>
      <trkpt lat="47.42753" lon="-0.59533">
        <ele>44.9059</ele>
        <time>2012-10-13T07:17:43Z</time>
      </trkpt>
      <trkpt lat="47.42763" lon="-0.59501">
        <ele>43.9667</ele>
        <time>2012-10-13T07:17:48Z</time>
      </trkpt>
      <trkpt lat="47.42782" lon="-0.59467">
        <ele>44.1619</ele>
        <time>2012-10-13T07:17:54Z</time>
      </trkpt>
      <trkpt lat="47.4279" lon="-0.5944">
        <ele>44.9289</ele>
        <time>2012-10-13T07:17:58Z</time>
      </trkpt>
      <trkpt lat="47.428" lon="-0.59409">
        <ele>45.4927</ele>
        <time>2012-10-13T07:18:04Z</time>
      </trkpt>
      <trkpt lat="47.42824" lon="-0.59372">
        <ele>47.1038</ele>
        <time>2012-10-13T07:18:12Z</time>
      </trkpt>
      <trkpt lat="47.4283" lon="-0.59355">
        <ele>54.0929</ele>
        <time>2012-10-13T07:18:17Z</time>
      </trkpt>
      <trkpt lat="47.4282" lon="-0.59337">
        <ele>55.816</ele>
        <time>2012-10-13T07:18:24Z</time>
      </trkpt>
      <trkpt lat="47.42808" lon="-0.59357">
        <ele>55.4863</ele>
        <time>2012-10-13T07:18:33Z</time>
      </trkpt>
      <trkpt lat="47.42788" lon="-0.5938">
        <ele>56.5174</ele>
        <time>2012-10-13T07:18:40Z</time>
      </trkpt>
      <trkpt lat="47.42782" lon="-0.59394">
        <ele>57.4951</ele>
        <time>2012-10-13T07:18:45Z</time>
      </trkpt>
      <trkpt lat="47.42765" lon="-0.59419">
        <ele>57.5111</ele>
        <time>2012-10-13T07:18:52Z</time>
      </trkpt>
      <trkpt lat="47.42742" lon="-0.59448">
        <ele>62.5829</ele>
        <time>2012-10-13T07:19:00Z</time>
      </trkpt>
      <trkpt lat="47.42717" lon="-0.59466">
        <ele>66.0713</ele>
        <time>2012-10-13T07:19:05Z</time>
      </trkpt>
      <trkpt lat="47.42675" lon="-0.5949">
        <ele>68.2628</ele>
        <time>2012-10-13T07:19:12Z</time>
      </trkpt>
      <trkpt lat="47.42637" lon="-0.5951">
        <ele>69.1991</ele>
        <time>2012-10-13T07:19:18Z</time>
      </trkpt>
      <trkpt lat="47.42595" lon="-0.59535">
        <ele>66.4376</ele>
        <time>2012-10-13T07:19:24Z</time>
      </trkpt>
      <trkpt lat="47.42558" lon="-0.59538">
        <ele>64.539</ele>
        <time>2012-10-13T07:19:30Z</time>
      </trkpt>
      <trkpt lat="47.42526" lon="-0.59545">
        <ele>64.6668</ele>
        <time>2012-10-13T07:19:37Z</time>
      </trkpt>
      <trkpt lat="47.42503" lon="-0.59553">
        <ele>62.7313</ele>
        <time>2012-10-13T07:19:43Z</time>
      </trkpt>
      <trkpt lat="47.42476" lon="-0.59563">
        <ele>58.0303</ele>
        <time>2012-10-13T07:19:50Z</time>
      </trkpt>
      <trkpt lat="47.42438" lon="-0.59576">
        <ele>48.9999</ele>
        <time>2012-10-13T07:19:57Z</time>
      </trkpt>
      <trkpt lat="47.42417" lon="-0.59585">
        <ele>43.0322</ele>
        <time>2012-10-13T07:20:02Z</time>
      </trkpt>
      <trkpt lat="47.42385" lon="-0.59598">
        <ele>33.6245</ele>
        <time>2012-10-13T07:20:09Z</time>
      </trkpt>
      <trkpt lat="47.4235" lon="-0.59603">
        <ele>29.0726</ele>
        <time>2012-10-13T07:20:15Z</time>
      </trkpt>
      <trkpt lat="47.423" lon="-0.59596">
        <ele>22.9689</ele>
        <time>2012-10-13T07:20:22Z</time>
      </trkpt>
      <trkpt lat="47.42273" lon="-0.59588">
        <ele>20.6698</ele>
        <time>2012-10-13T07:20:29Z</time>
      </trkpt>
      <trkpt lat="47.42273" lon="-0.59627">
        <ele>20.4731</ele>
        <time>2012-10-13T07:20:34Z</time>
      </trkpt>
      <trkpt lat="47.4228" lon="-0.59684">
        <ele>19.4562</ele>
        <time>2012-10-13T07:20:41Z</time>
      </trkpt>
      <trkpt lat="47.42286" lon="-0.59734">
        <ele>21.2252</ele>
        <time>2012-10-13T07:20:47Z</time>
      </trkpt>
      <trkpt lat="47.42293" lon="-0.59777">
        <ele>23.687</ele>
        <time>2012-10-13T07:20:52Z</time>
      </trkpt>
      <trkpt lat="47.42301" lon="-0.59825">
        <ele>25.4598</ele>
        <time>2012-10-13T07:20:58Z</time>
      </trkpt>
      <trkpt lat="47.42313" lon="-0.59876">
        <ele>32.2325</ele>
        <time>2012-10-13T07:21:05Z</time>
      </trkpt>
      <trkpt lat="47.42322" lon="-0.59929">
        <ele>35.0747</ele>
        <time>2012-10-13T07:21:12Z</time>
      </trkpt>
      <trkpt lat="47.42332" lon="-0.59986">
        <ele>37.1226</ele>
        <time>2012-10-13T07:21:19Z</time>
      </trkpt>
      <trkpt lat="47.42342" lon="-0.60045">
        <ele>38.0301</ele>
        <time>2012-10-13T07:21:26Z</time>
      </trkpt>
      <trkpt lat="47.42346" lon="-0.60084">
        <ele>39.3046</ele>
        <time>2012-10-13T07:21:31Z</time>
      </trkpt>
      <trkpt lat="47.42356" lon="-0.60137">
        <ele>42.3361</ele>
        <time>2012-10-13T07:21:38Z</time>
      </trkpt>
      <trkpt lat="47.42363" lon="-0.60176">
        <ele>41.7455</ele>
        <time>2012-10-13T07:21:44Z</time>
      </trkpt>
      <trkpt lat="47.42369" lon="-0.60215">
        <ele>42.2149</ele>
        <time>2012-10-13T07:21:51Z</time>
      </trkpt>
      <trkpt lat="47.42375" lon="-0.6025">
        <ele>42.3784</ele>
        <time>2012-10-13T07:21:58Z</time>
      </trkpt>
      <trkpt lat="47.42342" lon="-0.60277">
        <ele>46.9363</ele>
        <time>2012-10-13T07:22:08Z</time>
      </trkpt>
      <trkpt lat="47.42311" lon="-0.60298">
        <ele>48.9351</ele>
        <time>2012-10-13T07:22:16Z</time>
      </trkpt>
      <trkpt lat="47.42283" lon="-0.60318">
        <ele>49.6233</ele>
        <time>2012-10-13T07:22:24Z</time>
      </trkpt>
      <trkpt lat="47.42254" lon="-0.60336">
        <ele>48.3142</ele>
        <time>2012-10-13T07:22:31Z</time>
      </trkpt>
      <trkpt lat="47.42232" lon="-0.6036">
        <ele>48.1352</ele>
        <time>2012-10-13T07:22:37Z</time>
      </trkpt>
      <trkpt lat="47.42215" lon="-0.60385">
        <ele>47.1892</ele>
        <time>2012-10-13T07:22:46Z</time>
      </trkpt>
      <trkpt lat="47.42174" lon="-0.60406">
        <ele>55.2643</ele>
        <time>2012-10-13T07:22:55Z</time>
      </trkpt>
      <trkpt lat="47.42147" lon="-0.60448">
        <ele>55.9406</ele>
        <time>2012-10-13T07:23:01Z</time>
      </trkpt>
      <trkpt lat="47.42136" lon="-0.6047">
        <ele>55.3031</ele>
        <time>2012-10-13T07:23:04Z</time>
      </trkpt>
      <trkpt lat="47.42116" lon="-0.60511">
        <ele>55.2575</ele>
        <time>2012-10-13T07:23:11Z</time>
      </trkpt>
      <trkpt lat="47.42097" lon="-0.60557">
        <ele>57.4423</ele>
        <time>2012-10-13T07:23:19Z</time>
      </trkpt>
      <trkpt lat="47.42083" lon="-0.60592">
        <ele>58.3322</ele>
        <time>2012-10-13T07:23:25Z</time>
      </trkpt>
      <trkpt lat="47.42064" lon="-0.60629">
        <ele>58.1186</ele>
        <time>2012-10-13T07:23:32Z</time>
      </trkpt>
      <trkpt lat="47.42047" lon="-0.60652">
        <ele>59.4208</ele>
        <time>2012-10-13T07:23:37Z</time>
      </trkpt>
      <trkpt lat="47.42034" lon="-0.60677">
        <ele>60.418</ele>
        <time>2012-10-13T07:23:42Z</time>
      </trkpt>
      <trkpt lat="47.42014" lon="-0.60708">
        <ele>64.0214</ele>
        <time>2012-10-13T07:23:49Z</time>
      </trkpt>
      <trkpt lat="47.41992" lon="-0.60688">
        <ele>61.0356</ele>
        <time>2012-10-13T07:23:56Z</time>
      </trkpt>
      <trkpt lat="47.4198" lon="-0.60665">
        <ele>61.5198</ele>
        <time>2012-10-13T07:24:04Z</time>
      </trkpt>
      <trkpt lat="47.41965" lon="-0.60674">
        <ele>61.8895</ele>
        <time>2012-10-13T07:24:14Z</time>
      </trkpt>
      <trkpt lat="47.41983" lon="-0.60722">
        <ele>60.3011</ele>
        <time>2012-10-13T07:24:28Z</time>
      </trkpt>
      <trkpt lat="47.41955" lon="-0.6079">
        <ele>65.5488</ele>
        <time>2012-10-13T07:24:37Z</time>
      </trkpt>
      <trkpt lat="47.4192" lon="-0.60828">
        <ele>63.4328</ele>
        <time>2012-10-13T07:24:43Z</time>
      </trkpt>
      <trkpt lat="47.41903" lon="-0.6084">
        <ele>61.3661</ele>
        <time>2012-10-13T07:24:46Z</time>
      </trkpt>
      <trkpt lat="47.41864" lon="-0.6087">
        <ele>63.6732</ele>
        <time>2012-10-13T07:24:52Z</time>
      </trkpt>
      <trkpt lat="47.41832" lon="-0.60907">
        <ele>61.4799</ele>
        <time>2012-10-13T07:24:58Z</time>
      </trkpt>
      <trkpt lat="47.41805" lon="-0.60934">
        <ele>61.1346</ele>
        <time>2012-10-13T07:25:04Z</time>
      </trkpt>
      <trkpt lat="47.41781" lon="-0.60952">
        <ele>62.7953</ele>
        <time>2012-10-13T07:25:10Z</time>
      </trkpt>
      <trkpt lat="47.41753" lon="-0.60971">
        <ele>65.3593</ele>
        <time>2012-10-13T07:25:18Z</time>
      </trkpt>
      <trkpt lat="47.41727" lon="-0.60989">
        <ele>65.0995</ele>
        <time>2012-10-13T07:25:26Z</time>
      </trkpt>
      <trkpt lat="47.41701" lon="-0.61034">
        <ele>67.6454</ele>
        <time>2012-10-13T07:25:32Z</time>
      </trkpt>
      <trkpt lat="47.41682" lon="-0.61062">
        <ele>66.1862</ele>
        <time>2012-10-13T07:25:37Z</time>
      </trkpt>
      <trkpt lat="47.4166" lon="-0.61086">
        <ele>65.5205</ele>
        <time>2012-10-13T07:25:42Z</time>
      </trkpt>
      <trkpt lat="47.41638" lon="-0.61111">
        <ele>63.5957</ele>
        <time>2012-10-13T07:25:47Z</time>
      </trkpt>
      <trkpt lat="47.41608" lon="-0.61138">
        <ele>64.2013</ele>
        <time>2012-10-13T07:25:54Z</time>
      </trkpt>
      <trkpt lat="47.41586" lon="-0.61144">
        <ele>65.0585</ele>
        <time>2012-10-13T07:26:00Z</time>
      </trkpt>
      <trkpt lat="47.41555" lon="-0.61164">
        <ele>65.7145</ele>
        <time>2012-10-13T07:26:06Z</time>
      </trkpt>
      <trkpt lat="47.41534" lon="-0.61175">
        <ele>67.3484</ele>
        <time>2012-10-13T07:26:11Z</time>
      </trkpt>
      <trkpt lat="47.41517" lon="-0.61196">
        <ele>68.9549</ele>
        <time>2012-10-13T07:26:17Z</time>
      </trkpt>
      <trkpt lat="47.4149" lon="-0.61229">
        <ele>71.3001</ele>
        <time>2012-10-13T07:26:25Z</time>
      </trkpt>
      <trkpt lat="47.41451" lon="-0.61256">
        <ele>73.5757</ele>
        <time>2012-10-13T07:26:34Z</time>
      </trkpt>
      <trkpt lat="47.41423" lon="-0.61271">
        <ele>75.8302</ele>
        <time>2012-10-13T07:26:39Z</time>
      </trkpt>
      <trkpt lat="47.414" lon="-0.61281">
        <ele>75.9889</ele>
        <time>2012-10-13T07:26:44Z</time>
      </trkpt>
      <trkpt lat="47.41368" lon="-0.61297">
        <ele>75.6975</ele>
        <time>2012-10-13T07:26:50Z</time>
      </trkpt>
      <trkpt lat="47.41337" lon="-0.61305">
        <ele>74.8286</ele>
        <time>2012-10-13T07:26:56Z</time>
      </trkpt>
      <trkpt lat="47.4131" lon="-0.61311">
        <ele>73.1879</ele>
        <time>2012-10-13T07:27:01Z</time>
      </trkpt>
      <trkpt lat="47.4128" lon="-0.61322">
        <ele>70.589</ele>
        <time>2012-10-13T07:27:07Z</time>
      </trkpt>
      <trkpt lat="47.41247" lon="-0.61346">
        <ele>68.4904</ele>
        <time>2012-10-13T07:27:14Z</time>
      </trkpt>
      <trkpt lat="47.41222" lon="-0.61361">
        <ele>61.6717</ele>
        <time>2012-10-13T07:27:20Z</time>
      </trkpt>
      <trkpt lat="47.41208" lon="-0.61364">
        <ele>61.4606</ele>
        <time>2012-10-13T07:27:25Z</time>
      </trkpt>
      <trkpt lat="47.41201" lon="-0.61369">
        <ele>64.2243</ele>
        <time>2012-10-13T07:27:33Z</time>
      </trkpt>
      <trkpt lat="47.41191" lon="-0.61384">
        <ele>64.0594</ele>
        <time>2012-10-13T07:27:45Z</time>
      </trkpt>
      <trkpt lat="47.41201" lon="-0.61365">
        <ele>60.2721</ele>
        <time>2012-10-13T07:28:23Z</time>
      </trkpt>
      <trkpt lat="47.41203" lon="-0.61362">
        <ele>60.4122</ele>
        <time>2012-10-13T07:28:27Z</time>
      </trkpt>
      <trkpt lat="47.41227" lon="-0.61336">
        <ele>58.8291</ele>
        <time>2012-10-13T07:30:28Z</time>
      </trkpt>
      <trkpt lat="47.4124" lon="-0.61317">
        <ele>59.3074</ele>
        <time>2012-10-13T07:30:41Z</time>
      </trkpt>
      <trkpt lat="47.41259" lon="-0.61286">
        <ele>61.2808</ele>
        <time>2012-10-13T07:30:50Z</time>
      </trkpt>
      <trkpt lat="47.41271" lon="-0.61262">
        <ele>62.4381</ele>
        <time>2012-10-13T07:30:57Z</time>
      </trkpt>
      <trkpt lat="47.41286" lon="-0.61229">
        <ele>62.8026</ele>
        <time>2012-10-13T07:31:04Z</time>
      </trkpt>
      <trkpt lat="47.41304" lon="-0.61198">
        <ele>64.8779</ele>
        <time>2012-10-13T07:31:11Z</time>
      </trkpt>
      <trkpt lat="47.41322" lon="-0.61173">
        <ele>66.8064</ele>
        <time>2012-10-13T07:31:19Z</time>
      </trkpt>
      <trkpt lat="47.41339" lon="-0.61139">
        <ele>67.5851</ele>
        <time>2012-10-13T07:31:26Z</time>
      </trkpt>
      <trkpt lat="47.41358" lon="-0.61111">
        <ele>68.025</ele>
        <time>2012-10-13T07:31:33Z</time>
      </trkpt>
      <trkpt lat="47.41372" lon="-0.61077">
        <ele>67.6623</ele>
        <time>2012-10-13T07:31:41Z</time>
      </trkpt>
      <trkpt lat="47.41391" lon="-0.61034">
        <ele>66.0992</ele>
        <time>2012-10-13T07:31:50Z</time>
      </trkpt>
      <trkpt lat="47.41408" lon="-0.6099">
        <ele>60.1427</ele>
        <time>2012-10-13T07:31:56Z</time>
      </trkpt>
      <trkpt lat="47.4142" lon="-0.60966">
        <ele>59.9931</ele>
        <time>2012-10-13T07:32:02Z</time>
      </trkpt>
      <trkpt lat="47.41435" lon="-0.60946">
        <ele>59.2193</ele>
        <time>2012-10-13T07:32:08Z</time>
      </trkpt>
      <trkpt lat="47.41452" lon="-0.60904">
        <ele>55.9922</ele>
        <time>2012-10-13T07:32:19Z</time>
      </trkpt>
      <trkpt lat="47.41474" lon="-0.60868">
        <ele>52.1749</ele>
        <time>2012-10-13T07:32:31Z</time>
      </trkpt>
      <trkpt lat="47.41487" lon="-0.60851">
        <ele>52.0716</ele>
        <time>2012-10-13T07:32:36Z</time>
      </trkpt>
      <trkpt lat="47.41494" lon="-0.60829">
        <ele>50.6425</ele>
        <time>2012-10-13T07:32:45Z</time>
      </trkpt>
      <trkpt lat="47.41503" lon="-0.60819">
        <ele>54.2794</ele>
        <time>2012-10-13T07:32:51Z</time>
      </trkpt>
      <trkpt lat="47.41516" lon="-0.60801">
        <ele>57.0344</ele>
        <time>2012-10-13T07:33:29Z</time>
      </trkpt>
      <trkpt lat="47.41525" lon="-0.60768">
        <ele>57.9388</ele>
        <time>2012-10-13T07:33:38Z</time>
      </trkpt>
      <trkpt lat="47.41546" lon="-0.60733">
        <ele>59.9435</ele>
        <time>2012-10-13T07:33:46Z</time>
      </trkpt>
      <trkpt lat="47.41554" lon="-0.60712">
        <ele>61.2513</ele>
        <time>2012-10-13T07:33:51Z</time>
      </trkpt>
      <trkpt lat="47.4157" lon="-0.60669">
        <ele>59.6657</ele>
        <time>2012-10-13T07:34:00Z</time>
      </trkpt>
      <trkpt lat="47.41572" lon="-0.60624">
        <ele>59.9454</ele>
        <time>2012-10-13T07:34:09Z</time>
      </trkpt>
      <trkpt lat="47.41579" lon="-0.60577">
        <ele>61.2848</ele>
        <time>2012-10-13T07:34:18Z</time>
      </trkpt>
      <trkpt lat="47.41584" lon="-0.60533">
        <ele>62.2265</ele>
        <time>2012-10-13T07:34:25Z</time>
      </trkpt>
      <trkpt lat="47.41584" lon="-0.60488">
        <ele>63.8397</ele>
        <time>2012-10-13T07:34:31Z</time>
      </trkpt>
      <trkpt lat="47.41581" lon="-0.60437">
        <ele>65.6809</ele>
        <time>2012-10-13T07:34:38Z</time>
      </trkpt>
      <trkpt lat="47.41587" lon="-0.60392">
        <ele>68.5784</ele>
        <time>2012-10-13T07:34:44Z</time>
      </trkpt>
      <trkpt lat="47.41589" lon="-0.60365">
        <ele>70.3446</ele>
        <time>2012-10-13T07:34:49Z</time>
      </trkpt>
      <trkpt lat="47.4159" lon="-0.6033">
        <ele>73.6597</ele>
        <time>2012-10-13T07:34:54Z</time>
      </trkpt>
      <trkpt lat="47.41597" lon="-0.60294">
        <ele>76.4767</ele>
        <time>2012-10-13T07:35:00Z</time>
      </trkpt>
      <trkpt lat="47.41599" lon="-0.60259">
        <ele>77.7848</ele>
        <time>2012-10-13T07:35:07Z</time>
      </trkpt>
      <trkpt lat="47.41612" lon="-0.60231">
        <ele>81.5995</ele>
        <time>2012-10-13T07:35:14Z</time>
      </trkpt>
      <trkpt lat="47.41636" lon="-0.60178">
        <ele>82.7026</ele>
        <time>2012-10-13T07:35:23Z</time>
      </trkpt>
      <trkpt lat="47.41644" lon="-0.60146">
        <ele>82.7205</ele>
        <time>2012-10-13T07:35:28Z</time>
      </trkpt>
      <trkpt lat="47.4165" lon="-0.60123">
        <ele>81.4366</ele>
        <time>2012-10-13T07:35:31Z</time>
      </trkpt>
      <trkpt lat="47.41653" lon="-0.60096">
        <ele>79.6561</ele>
        <time>2012-10-13T07:35:36Z</time>
      </trkpt>
      <trkpt lat="47.41651" lon="-0.60047">
        <ele>76.644</ele>
        <time>2012-10-13T07:35:43Z</time>
      </trkpt>
      <trkpt lat="47.41649" lon="-0.60007">
        <ele>73.7399</ele>
        <time>2012-10-13T07:35:50Z</time>
      </trkpt>
      <trkpt lat="47.41647" lon="-0.59971">
        <ele>71.868</ele>
        <time>2012-10-13T07:35:56Z</time>
      </trkpt>
      <trkpt lat="47.41647" lon="-0.59914">
        <ele>73.0245</ele>
        <time>2012-10-13T07:36:01Z</time>
      </trkpt>
      <trkpt lat="47.41648" lon="-0.59856">
        <ele>71.3773</ele>
        <time>2012-10-13T07:36:07Z</time>
      </trkpt>
      <trkpt lat="47.41653" lon="-0.59813">
        <ele>70.1566</ele>
        <time>2012-10-13T07:36:12Z</time>
      </trkpt>
      <trkpt lat="47.41654" lon="-0.59775">
        <ele>70.0244</ele>
        <time>2012-10-13T07:36:17Z</time>
      </trkpt>
      <trkpt lat="47.41656" lon="-0.5972">
        <ele>71.1202</ele>
        <time>2012-10-13T07:36:24Z</time>
      </trkpt>
      <trkpt lat="47.41666" lon="-0.59686">
        <ele>66.4739</ele>
        <time>2012-10-13T07:36:29Z</time>
      </trkpt>
      <trkpt lat="47.4168" lon="-0.59668">
        <ele>64.0437</ele>
        <time>2012-10-13T07:36:35Z</time>
      </trkpt>
      <trkpt lat="47.41659" lon="-0.59673">
        <ele>64.3252</ele>
        <time>2012-10-13T07:36:43Z</time>
      </trkpt>
      <trkpt lat="47.41654" lon="-0.59657">
        <ele>62.7637</ele>
        <time>2012-10-13T07:36:48Z</time>
      </trkpt>
      <trkpt lat="47.41657" lon="-0.5963">
        <ele>62.31</ele>
        <time>2012-10-13T07:36:54Z</time>
      </trkpt>
      <trkpt lat="47.41655" lon="-0.5958">
        <ele>67.0205</ele>
        <time>2012-10-13T07:37:02Z</time>
      </trkpt>
      <trkpt lat="47.41655" lon="-0.59538">
        <ele>71.1455</ele>
        <time>2012-10-13T07:37:09Z</time>
      </trkpt>
      <trkpt lat="47.41654" lon="-0.59498">
        <ele>71.8526</ele>
        <time>2012-10-13T07:37:15Z</time>
      </trkpt>
      <trkpt lat="47.41657" lon="-0.59464">
        <ele>73.2037</ele>
        <time>2012-10-13T07:37:21Z</time>
      </trkpt>
      <trkpt lat="47.41666" lon="-0.59405">
        <ele>72.5098</ele>
        <time>2012-10-13T07:37:29Z</time>
      </trkpt>
      <trkpt lat="47.41677" lon="-0.59367">
        <ele>71.7896</ele>
        <time>2012-10-13T07:37:36Z</time>
      </trkpt>
      <trkpt lat="47.41678" lon="-0.59322">
        <ele>72.2273</ele>
        <time>2012-10-13T07:37:42Z</time>
      </trkpt>
      <trkpt lat="47.41684" lon="-0.59266">
        <ele>71.9318</ele>
        <time>2012-10-13T07:37:49Z</time>
      </trkpt>
      <trkpt lat="47.41685" lon="-0.59214">
        <ele>72.0336</ele>
        <time>2012-10-13T07:37:55Z</time>
      </trkpt>
      <trkpt lat="47.41684" lon="-0.59161">
        <ele>71.648</ele>
        <time>2012-10-13T07:38:01Z</time>
      </trkpt>
      <trkpt lat="47.41689" lon="-0.59105">
        <ele>72.418</ele>
        <time>2012-10-13T07:38:08Z</time>
      </trkpt>
      <trkpt lat="47.41693" lon="-0.59059">
        <ele>72.024</ele>
        <time>2012-10-13T07:38:14Z</time>
      </trkpt>
      <trkpt lat="47.41697" lon="-0.59027">
        <ele>71.4181</ele>
        <time>2012-10-13T07:38:19Z</time>
      </trkpt>
      <trkpt lat="47.41698" lon="-0.58987">
        <ele>69.6687</ele>
        <time>2012-10-13T07:38:26Z</time>
      </trkpt>
      <trkpt lat="47.41702" lon="-0.58958">
        <ele>69.1081</ele>
        <time>2012-10-13T07:38:31Z</time>
      </trkpt>
      <trkpt lat="47.41705" lon="-0.58908">
        <ele>68.1876</ele>
        <time>2012-10-13T07:38:37Z</time>
      </trkpt>
      <trkpt lat="47.41711" lon="-0.58859">
        <ele>68.4999</ele>
        <time>2012-10-13T07:38:43Z</time>
      </trkpt>
      <trkpt lat="47.41715" lon="-0.58812">
        <ele>68.7437</ele>
        <time>2012-10-13T07:38:49Z</time>
      </trkpt>
      <trkpt lat="47.41721" lon="-0.58758">
        <ele>65.0696</ele>
        <time>2012-10-13T07:38:55Z</time>
      </trkpt>
      <trkpt lat="47.41723" lon="-0.58706">
        <ele>64.5407</ele>
        <time>2012-10-13T07:39:01Z</time>
      </trkpt>
      <trkpt lat="47.41731" lon="-0.58665">
        <ele>64.8537</ele>
        <time>2012-10-13T07:39:06Z</time>
      </trkpt>
      <trkpt lat="47.41734" lon="-0.58625">
        <ele>65.3013</ele>
        <time>2012-10-13T07:39:11Z</time>
      </trkpt>
      <trkpt lat="47.41745" lon="-0.58573">
        <ele>67.8371</ele>
        <time>2012-10-13T07:39:17Z</time>
      </trkpt>
      <trkpt lat="47.41746" lon="-0.58528">
        <ele>70.5995</ele>
        <time>2012-10-13T07:39:23Z</time>
      </trkpt>
      <trkpt lat="47.41749" lon="-0.58477">
        <ele>72.8098</ele>
        <time>2012-10-13T07:39:30Z</time>
      </trkpt>
      <trkpt lat="47.41752" lon="-0.58433">
        <ele>72.68</ele>
        <time>2012-10-13T07:39:35Z</time>
      </trkpt>
      <trkpt lat="47.41751" lon="-0.58397">
        <ele>72.5976</ele>
        <time>2012-10-13T07:39:40Z</time>
      </trkpt>
      <trkpt lat="47.41745" lon="-0.5835">
        <ele>73.7889</ele>
        <time>2012-10-13T07:39:47Z</time>
      </trkpt>
      <trkpt lat="47.41743" lon="-0.58319">
        <ele>72.395</ele>
        <time>2012-10-13T07:39:52Z</time>
      </trkpt>
      <trkpt lat="47.41748" lon="-0.58305">
        <ele>72.4316</ele>
        <time>2012-10-13T07:39:59Z</time>
      </trkpt>
      <trkpt lat="47.41754" lon="-0.5829">
        <ele>72.7148</ele>
        <time>2012-10-13T07:40:08Z</time>
      </trkpt>
      <trkpt lat="47.41753" lon="-0.58274">
        <ele>72.4506</ele>
        <time>2012-10-13T07:40:20Z</time>
      </trkpt>
      <trkpt lat="47.41737" lon="-0.58169">
        <ele>72.4827</ele>
        <time>2012-10-13T07:40:37Z</time>
      </trkpt>
      <trkpt lat="47.41737" lon="-0.58126">
        <ele>71.3756</ele>
        <time>2012-10-13T07:40:42Z</time>
      </trkpt>
      <trkpt lat="47.41736" lon="-0.58079">
        <ele>68.111</ele>
        <time>2012-10-13T07:40:48Z</time>
      </trkpt>
      <trkpt lat="47.41745" lon="-0.58023">
        <ele>63.2531</ele>
        <time>2012-10-13T07:40:54Z</time>
      </trkpt>
      <trkpt lat="47.41753" lon="-0.57968">
        <ele>61.4413</ele>
        <time>2012-10-13T07:41:00Z</time>
      </trkpt>
      <trkpt lat="47.41758" lon="-0.57929">
        <ele>59.1432</ele>
        <time>2012-10-13T07:41:05Z</time>
      </trkpt>
      <trkpt lat="47.41766" lon="-0.57876">
        <ele>56.0146</ele>
        <time>2012-10-13T07:41:11Z</time>
      </trkpt>
      <trkpt lat="47.41777" lon="-0.57827">
        <ele>53.9835</ele>
        <time>2012-10-13T07:41:17Z</time>
      </trkpt>
      <trkpt lat="47.41793" lon="-0.57776">
        <ele>52.3386</ele>
        <time>2012-10-13T07:41:22Z</time>
      </trkpt>
      <trkpt lat="47.41797" lon="-0.57755">
        <ele>51.9018</ele>
        <time>2012-10-13T07:41:25Z</time>
      </trkpt>
      <trkpt lat="47.41794" lon="-0.5773">
        <ele>51.5157</ele>
        <time>2012-10-13T07:41:32Z</time>
      </trkpt>
      <trkpt lat="47.41802" lon="-0.57655">
        <ele>55.6995</ele>
        <time>2012-10-13T07:41:47Z</time>
      </trkpt>
      <trkpt lat="47.41804" lon="-0.57642">
        <ele>53.307</ele>
        <time>2012-10-13T07:41:54Z</time>
      </trkpt>
      <trkpt lat="47.41815" lon="-0.57602">
        <ele>56.0356</ele>
        <time>2012-10-13T07:42:10Z</time>
      </trkpt>
      <trkpt lat="47.41835" lon="-0.5755">
        <ele>54.2077</ele>
        <time>2012-10-13T07:42:19Z</time>
      </trkpt>
      <trkpt lat="47.41846" lon="-0.57533">
        <ele>53.7411</ele>
        <time>2012-10-13T07:42:26Z</time>
      </trkpt>
      <trkpt lat="47.41847" lon="-0.57506">
        <ele>56.8469</ele>
        <time>2012-10-13T07:42:36Z</time>
      </trkpt>
      <trkpt lat="47.41857" lon="-0.57469">
        <ele>58.1587</ele>
        <time>2012-10-13T07:42:46Z</time>
      </trkpt>
      <trkpt lat="47.41868" lon="-0.57435">
        <ele>59.4699</ele>
        <time>2012-10-13T07:42:52Z</time>
      </trkpt>
      <trkpt lat="47.41882" lon="-0.57403">
        <ele>59.6522</ele>
        <time>2012-10-13T07:42:57Z</time>
      </trkpt>
      <trkpt lat="47.41894" lon="-0.57384">
        <ele>61.8765</ele>
        <time>2012-10-13T07:43:05Z</time>
      </trkpt>
      <trkpt lat="47.41884" lon="-0.57344">
        <ele>64.7607</ele>
        <time>2012-10-13T07:43:15Z</time>
      </trkpt>
      <trkpt lat="47.41885" lon="-0.57306">
        <ele>64.628</ele>
        <time>2012-10-13T07:43:21Z</time>
      </trkpt>
      <trkpt lat="47.41892" lon="-0.57257">
        <ele>65.1553</ele>
        <time>2012-10-13T07:43:27Z</time>
      </trkpt>
      <trkpt lat="47.41894" lon="-0.5721">
        <ele>64.5831</ele>
        <time>2012-10-13T07:43:32Z</time>
      </trkpt>
      <trkpt lat="47.419" lon="-0.57166">
        <ele>64.5585</ele>
        <time>2012-10-13T07:43:37Z</time>
      </trkpt>
      <trkpt lat="47.41907" lon="-0.57113">
        <ele>66.4776</ele>
        <time>2012-10-13T07:43:43Z</time>
      </trkpt>
      <trkpt lat="47.41913" lon="-0.57051">
        <ele>66.7347</ele>
        <time>2012-10-13T07:43:49Z</time>
      </trkpt>
      <trkpt lat="47.4192" lon="-0.56992">
        <ele>67.2201</ele>
        <time>2012-10-13T07:43:55Z</time>
      </trkpt>
      <trkpt lat="47.41926" lon="-0.56933">
        <ele>65.738</ele>
        <time>2012-10-13T07:44:01Z</time>
      </trkpt>
      <trkpt lat="47.41912" lon="-0.56903">
        <ele>67.5848</ele>
        <time>2012-10-13T07:44:07Z</time>
      </trkpt>
      <trkpt lat="47.41912" lon="-0.5684">
        <ele>67.0424</ele>
        <time>2012-10-13T07:44:15Z</time>
      </trkpt>
      <trkpt lat="47.41915" lon="-0.56797">
        <ele>66.7543</ele>
        <time>2012-10-13T07:44:21Z</time>
      </trkpt>
      <trkpt lat="47.4192" lon="-0.56757">
        <ele>65.4931</ele>
        <time>2012-10-13T07:44:26Z</time>
      </trkpt>
      <trkpt lat="47.41927" lon="-0.5671">
        <ele>63.5918</ele>
        <time>2012-10-13T07:44:32Z</time>
      </trkpt>
      <trkpt lat="47.41925" lon="-0.56685">
        <ele>60.8826</ele>
        <time>2012-10-13T07:44:35Z</time>
      </trkpt>
      <trkpt lat="47.41927" lon="-0.56639">
        <ele>56.2385</ele>
        <time>2012-10-13T07:44:42Z</time>
      </trkpt>
      <trkpt lat="47.41935" lon="-0.56597">
        <ele>52.8991</ele>
        <time>2012-10-13T07:44:48Z</time>
      </trkpt>
      <trkpt lat="47.41938" lon="-0.56554">
        <ele>50.8823</ele>
        <time>2012-10-13T07:44:54Z</time>
      </trkpt>
      <trkpt lat="47.4194" lon="-0.56507">
        <ele>49.5166</ele>
        <time>2012-10-13T07:45:00Z</time>
      </trkpt>
      <trkpt lat="47.41949" lon="-0.56466">
        <ele>48.4243</ele>
        <time>2012-10-13T07:45:06Z</time>
      </trkpt>
      <trkpt lat="47.4195" lon="-0.56423">
        <ele>47.8527</ele>
        <time>2012-10-13T07:45:12Z</time>
      </trkpt>
      <trkpt lat="47.41955" lon="-0.56386">
        <ele>47.5227</ele>
        <time>2012-10-13T07:45:18Z</time>
      </trkpt>
      <trkpt lat="47.41963" lon="-0.56365">
        <ele>46.3685</ele>
        <time>2012-10-13T07:45:23Z</time>
      </trkpt>
      <trkpt lat="47.41967" lon="-0.56285">
        <ele>46.6675</ele>
        <time>2012-10-13T07:45:33Z</time>
      </trkpt>
      <trkpt lat="47.41971" lon="-0.56225">
        <ele>45.8523</ele>
        <time>2012-10-13T07:45:40Z</time>
      </trkpt>
      <trkpt lat="47.41969" lon="-0.56186">
        <ele>45.5797</ele>
        <time>2012-10-13T07:45:45Z</time>
      </trkpt>
      <trkpt lat="47.4197" lon="-0.56131">
        <ele>43.6524</ele>
        <time>2012-10-13T07:45:52Z</time>
      </trkpt>
      <trkpt lat="47.41968" lon="-0.5607">
        <ele>45.011</ele>
        <time>2012-10-13T07:45:59Z</time>
      </trkpt>
      <trkpt lat="47.41968" lon="-0.56013">
        <ele>47.506</ele>
        <time>2012-10-13T07:46:06Z</time>
      </trkpt>
      <trkpt lat="47.41975" lon="-0.55975">
        <ele>48.9135</ele>
        <time>2012-10-13T07:46:12Z</time>
      </trkpt>
      <trkpt lat="47.41972" lon="-0.55947">
        <ele>52.631</ele>
        <time>2012-10-13T07:46:18Z</time>
      </trkpt>
      <trkpt lat="47.41971" lon="-0.55902">
        <ele>54.338</ele>
        <time>2012-10-13T07:46:25Z</time>
      </trkpt>
      <trkpt lat="47.41979" lon="-0.55851">
        <ele>54.5626</ele>
        <time>2012-10-13T07:46:31Z</time>
      </trkpt>
      <trkpt lat="47.4199" lon="-0.5581">
        <ele>53.6343</ele>
        <time>2012-10-13T07:46:36Z</time>
      </trkpt>
      <trkpt lat="47.42004" lon="-0.55771">
        <ele>53.474</ele>
        <time>2012-10-13T07:46:41Z</time>
      </trkpt>
      <trkpt lat="47.42018" lon="-0.55725">
        <ele>53.8012</ele>
        <time>2012-10-13T07:46:47Z</time>
      </trkpt>
      <trkpt lat="47.42044" lon="-0.55702">
        <ele>53.7189</ele>
        <time>2012-10-13T07:46:53Z</time>
      </trkpt>
      <trkpt lat="47.42064" lon="-0.5568">
        <ele>53.3949</ele>
        <time>2012-10-13T07:46:58Z</time>
      </trkpt>
      <trkpt lat="47.42075" lon="-0.55641">
        <ele>52.7814</ele>
        <time>2012-10-13T07:47:04Z</time>
      </trkpt>
      <trkpt lat="47.42085" lon="-0.55597">
        <ele>51.7351</ele>
        <time>2012-10-13T07:47:11Z</time>
      </trkpt>
      <trkpt lat="47.42097" lon="-0.55559">
        <ele>51.3211</ele>
        <time>2012-10-13T07:47:17Z</time>
      </trkpt>
      <trkpt lat="47.42118" lon="-0.55526">
        <ele>50.5526</ele>
        <time>2012-10-13T07:47:23Z</time>
      </trkpt>
      <trkpt lat="47.4214" lon="-0.55488">
        <ele>49.8337</ele>
        <time>2012-10-13T07:47:29Z</time>
      </trkpt>
      <trkpt lat="47.42158" lon="-0.55447">
        <ele>49.2874</ele>
        <time>2012-10-13T07:47:35Z</time>
      </trkpt>
      <trkpt lat="47.42172" lon="-0.55418">
        <ele>49.1203</ele>
        <time>2012-10-13T07:47:40Z</time>
      </trkpt>
      <trkpt lat="47.42183" lon="-0.55383">
        <ele>48.9369</ele>
        <time>2012-10-13T07:47:45Z</time>
      </trkpt>
      <trkpt lat="47.42193" lon="-0.55334">
        <ele>48.8349</ele>
        <time>2012-10-13T07:47:52Z</time>
      </trkpt>
      <trkpt lat="47.42204" lon="-0.55291">
        <ele>49.57</ele>
        <time>2012-10-13T07:47:58Z</time>
      </trkpt>
      <trkpt lat="47.42217" lon="-0.55249">
        <ele>49.9953</ele>
        <time>2012-10-13T07:48:04Z</time>
      </trkpt>
      <trkpt lat="47.42237" lon="-0.55204">
        <ele>50.467</ele>
        <time>2012-10-13T07:48:11Z</time>
      </trkpt>
      <trkpt lat="47.42259" lon="-0.5517">
        <ele>50.3655</ele>
        <time>2012-10-13T07:48:17Z</time>
      </trkpt>
      <trkpt lat="47.42274" lon="-0.55137">
        <ele>50.4912</ele>
        <time>2012-10-13T07:48:22Z</time>
      </trkpt>
      <trkpt lat="47.42301" lon="-0.55109">
        <ele>50.3059</ele>
        <time>2012-10-13T07:48:28Z</time>
      </trkpt>
      <trkpt lat="47.42325" lon="-0.55084">
        <ele>51.3591</ele>
        <time>2012-10-13T07:48:34Z</time>
      </trkpt>
      <trkpt lat="47.42335" lon="-0.55062">
        <ele>53.0666</ele>
        <time>2012-10-13T07:48:40Z</time>
      </trkpt>
      <trkpt lat="47.42321" lon="-0.55026">
        <ele>55.7986</ele>
        <time>2012-10-13T07:48:47Z</time>
      </trkpt>
      <trkpt lat="47.42323" lon="-0.54991">
        <ele>59.6074</ele>
        <time>2012-10-13T07:48:54Z</time>
      </trkpt>
      <trkpt lat="47.42345" lon="-0.54964">
        <ele>59.6801</ele>
        <time>2012-10-13T07:49:01Z</time>
      </trkpt>
      <trkpt lat="47.42347" lon="-0.54961">
        <ele>60.7134</ele>
        <time>2012-10-13T07:49:05Z</time>
      </trkpt>
      <trkpt lat="47.42322" lon="-0.54955">
        <ele>59.5037</ele>
        <time>2012-10-13T07:49:18Z</time>
      </trkpt>
      <trkpt lat="47.42309" lon="-0.54899">
        <ele>53.5063</ele>
        <time>2012-10-13T07:49:25Z</time>
      </trkpt>
      <trkpt lat="47.42326" lon="-0.54853">
        <ele>43.6199</ele>
        <time>2012-10-13T07:49:33Z</time>
      </trkpt>
      <trkpt lat="47.4233" lon="-0.54803">
        <ele>39.518</ele>
        <time>2012-10-13T07:49:39Z</time>
      </trkpt>
      <trkpt lat="47.42341" lon="-0.54758">
        <ele>35.3857</ele>
        <time>2012-10-13T07:49:45Z</time>
      </trkpt>
      <trkpt lat="47.42362" lon="-0.54713">
        <ele>29.223</ele>
        <time>2012-10-13T07:49:51Z</time>
      </trkpt>
      <trkpt lat="47.42384" lon="-0.54668">
        <ele>29.1282</ele>
        <time>2012-10-13T07:49:57Z</time>
      </trkpt>
      <trkpt lat="47.42404" lon="-0.54643">
        <ele>28.6335</ele>
        <time>2012-10-13T07:50:01Z</time>
      </trkpt>
      <trkpt lat="47.4242" lon="-0.54618">
        <ele>28.1994</ele>
        <time>2012-10-13T07:50:05Z</time>
      </trkpt>
      <trkpt lat="47.42439" lon="-0.54576">
        <ele>29.6382</ele>
        <time>2012-10-13T07:50:11Z</time>
      </trkpt>
      <trkpt lat="47.42456" lon="-0.5454">
        <ele>29.8798</ele>
        <time>2012-10-13T07:50:16Z</time>
      </trkpt>
      <trkpt lat="47.42473" lon="-0.54505">
        <ele>30.5177</ele>
        <time>2012-10-13T07:50:21Z</time>
      </trkpt>
      <trkpt lat="47.42498" lon="-0.54463">
        <ele>31.8006</ele>
        <time>2012-10-13T07:50:27Z</time>
      </trkpt>
      <trkpt lat="47.42512" lon="-0.54406">
        <ele>33.9243</ele>
        <time>2012-10-13T07:50:34Z</time>
      </trkpt>
      <trkpt lat="47.42521" lon="-0.54358">
        <ele>34.0127</ele>
        <time>2012-10-13T07:50:39Z</time>
      </trkpt>
      <trkpt lat="47.42529" lon="-0.5431">
        <ele>34.8784</ele>
        <time>2012-10-13T07:50:45Z</time>
      </trkpt>
      <trkpt lat="47.42537" lon="-0.54271">
        <ele>34.7876</ele>
        <time>2012-10-13T07:50:50Z</time>
      </trkpt>
      <trkpt lat="47.42535" lon="-0.54234">
        <ele>34.6203</ele>
        <time>2012-10-13T07:50:55Z</time>
      </trkpt>
      <trkpt lat="47.42532" lon="-0.54197">
        <ele>32.7918</ele>
        <time>2012-10-13T07:51:00Z</time>
      </trkpt>
      <trkpt lat="47.42522" lon="-0.54149">
        <ele>30.4416</ele>
        <time>2012-10-13T07:51:06Z</time>
      </trkpt>
      <trkpt lat="47.4251" lon="-0.54103">
        <ele>27.659</ele>
        <time>2012-10-13T07:51:11Z</time>
      </trkpt>
      <trkpt lat="47.42516" lon="-0.54058">
        <ele>22.8176</ele>
        <time>2012-10-13T07:51:17Z</time>
      </trkpt>
      <trkpt lat="47.42512" lon="-0.54009">
        <ele>17.0518</ele>
        <time>2012-10-13T07:51:23Z</time>
      </trkpt>
      <trkpt lat="47.42521" lon="-0.53969">
        <ele>14.3048</ele>
        <time>2012-10-13T07:51:28Z</time>
      </trkpt>
      <trkpt lat="47.42533" lon="-0.53919">
        <ele>11.6424</ele>
        <time>2012-10-13T07:51:34Z</time>
      </trkpt>
      <trkpt lat="47.42549" lon="-0.53877">
        <ele>9.98283</ele>
        <time>2012-10-13T07:51:39Z</time>
      </trkpt>
      <trkpt lat="47.42573" lon="-0.53819">
        <ele>7.98497</ele>
        <time>2012-10-13T07:51:46Z</time>
      </trkpt>
      <trkpt lat="47.42608" lon="-0.53769">
        <ele>5.92039</ele>
        <time>2012-10-13T07:51:53Z</time>
      </trkpt>
      <trkpt lat="47.42619" lon="-0.53718">
        <ele>5.55206</ele>
        <time>2012-10-13T07:51:59Z</time>
      </trkpt>
      <trkpt lat="47.42628" lon="-0.53657">
        <ele>4.96967</ele>
        <time>2012-10-13T07:52:06Z</time>
      </trkpt>
      <trkpt lat="47.42639" lon="-0.53616">
        <ele>4.65374</ele>
        <time>2012-10-13T07:52:11Z</time>
      </trkpt>
      <trkpt lat="47.42649" lon="-0.53574">
        <ele>4.64839</ele>
        <time>2012-10-13T07:52:16Z</time>
      </trkpt>
      <trkpt lat="47.42647" lon="-0.53521">
        <ele>5.91043</ele>
        <time>2012-10-13T07:52:22Z</time>
      </trkpt>
      <trkpt lat="47.42642" lon="-0.53478">
        <ele>7.26083</ele>
        <time>2012-10-13T07:52:27Z</time>
      </trkpt>
      <trkpt lat="47.42643" lon="-0.53423">
        <ele>8.62885</ele>
        <time>2012-10-13T07:52:33Z</time>
      </trkpt>
      <trkpt lat="47.42645" lon="-0.53371">
        <ele>10.2515</ele>
        <time>2012-10-13T07:52:39Z</time>
      </trkpt>
      <trkpt lat="47.42649" lon="-0.53346">
        <ele>11.2983</ele>
        <time>2012-10-13T07:52:42Z</time>
      </trkpt>
      <trkpt lat="47.42661" lon="-0.53295">
        <ele>12.8425</ele>
        <time>2012-10-13T07:52:48Z</time>
      </trkpt>
      <trkpt lat="47.42667" lon="-0.53256">
        <ele>14.62</ele>
        <time>2012-10-13T07:52:53Z</time>
      </trkpt>
      <trkpt lat="47.42678" lon="-0.53214">
        <ele>15.6867</ele>
        <time>2012-10-13T07:52:59Z</time>
      </trkpt>
      <trkpt lat="47.42694" lon="-0.53178">
        <ele>15.4349</ele>
        <time>2012-10-13T07:53:05Z</time>
      </trkpt>
      <trkpt lat="47.42709" lon="-0.53148">
        <ele>15.5456</ele>
        <time>2012-10-13T07:53:12Z</time>
      </trkpt>
      <trkpt lat="47.42702" lon="-0.53093">
        <ele>14.8252</ele>
        <time>2012-10-13T07:53:19Z</time>
      </trkpt>
      <trkpt lat="47.42701" lon="-0.53037">
        <ele>13.4815</ele>
        <time>2012-10-13T07:53:25Z</time>
      </trkpt>
      <trkpt lat="47.42694" lon="-0.52985">
        <ele>12.9651</ele>
        <time>2012-10-13T07:53:31Z</time>
      </trkpt>
      <trkpt lat="47.42698" lon="-0.52937">
        <ele>11.7473</ele>
        <time>2012-10-13T07:53:36Z</time>
      </trkpt>
      <trkpt lat="47.42708" lon="-0.52883">
        <ele>10.3185</ele>
        <time>2012-10-13T07:53:42Z</time>
      </trkpt>
      <trkpt lat="47.42706" lon="-0.52813">
        <ele>16.1194</ele>
        <time>2012-10-13T07:53:49Z</time>
      </trkpt>
      <trkpt lat="47.42708" lon="-0.52758">
        <ele>24.8057</ele>
        <time>2012-10-13T07:53:56Z</time>
      </trkpt>
      <trkpt lat="47.42708" lon="-0.52726">
        <ele>30.7576</ele>
        <time>2012-10-13T07:54:01Z</time>
      </trkpt>
      <trkpt lat="47.42706" lon="-0.52698">
        <ele>37.9991</ele>
        <time>2012-10-13T07:54:10Z</time>
      </trkpt>
      <trkpt lat="47.42671" lon="-0.5267">
        <ele>44.5374</ele>
        <time>2012-10-13T07:54:23Z</time>
      </trkpt>
      <trkpt lat="47.42651" lon="-0.52657">
        <ele>46.579</ele>
        <time>2012-10-13T07:54:29Z</time>
      </trkpt>
      <trkpt lat="47.42635" lon="-0.52647">
        <ele>49.8801</ele>
        <time>2012-10-13T07:54:38Z</time>
      </trkpt>
      <trkpt lat="47.42629" lon="-0.52635">
        <ele>54.145</ele>
        <time>2012-10-13T07:54:46Z</time>
      </trkpt>
      <trkpt lat="47.42614" lon="-0.52648">
        <ele>80.9637</ele>
        <time>2012-10-13T08:01:48Z</time>
      </trkpt>
      <trkpt lat="47.42601" lon="-0.52679">
        <ele>77.3961</ele>
        <time>2012-10-13T08:01:54Z</time>
      </trkpt>
      <trkpt lat="47.42591" lon="-0.52706">
        <ele>75.6082</ele>
        <time>2012-10-13T08:01:59Z</time>
      </trkpt>
      <trkpt lat="47.42575" lon="-0.52716">
        <ele>70.4565</ele>
        <time>2012-10-13T08:02:07Z</time>
      </trkpt>
      <trkpt lat="47.4254" lon="-0.52703">
        <ele>67.5965</ele>
        <time>2012-10-13T08:02:16Z</time>
      </trkpt>
      <trkpt lat="47.42513" lon="-0.52697">
        <ele>66.6161</ele>
        <time>2012-10-13T08:02:22Z</time>
      </trkpt>
      <trkpt lat="47.42491" lon="-0.52703">
        <ele>67.8446</ele>
        <time>2012-10-13T08:02:28Z</time>
      </trkpt>
      <trkpt lat="47.4248" lon="-0.52744">
        <ele>64.6139</ele>
        <time>2012-10-13T08:02:34Z</time>
      </trkpt>
      <trkpt lat="47.42476" lon="-0.52784">
        <ele>65.5681</ele>
        <time>2012-10-13T08:02:40Z</time>
      </trkpt>
      <trkpt lat="47.4247" lon="-0.52824">
        <ele>71.4605</ele>
        <time>2012-10-13T08:02:47Z</time>
      </trkpt>
      <trkpt lat="47.42464" lon="-0.52841">
        <ele>68.8863</ele>
        <time>2012-10-13T08:02:55Z</time>
      </trkpt>
      <trkpt lat="47.42443" lon="-0.52887">
        <ele>71.1986</ele>
        <time>2012-10-13T08:03:10Z</time>
      </trkpt>
      <trkpt lat="47.42421" lon="-0.52875">
        <ele>76.3138</ele>
        <time>2012-10-13T08:03:16Z</time>
      </trkpt>
      <trkpt lat="47.42404" lon="-0.52875">
        <ele>77.378</ele>
        <time>2012-10-13T08:03:21Z</time>
      </trkpt>
      <trkpt lat="47.42361" lon="-0.52864">
        <ele>72.2714</ele>
        <time>2012-10-13T08:03:31Z</time>
      </trkpt>
      <trkpt lat="47.42349" lon="-0.52837">
        <ele>71.6463</ele>
        <time>2012-10-13T08:03:36Z</time>
      </trkpt>
      <trkpt lat="47.42334" lon="-0.52797">
        <ele>76.0148</ele>
        <time>2012-10-13T08:03:43Z</time>
      </trkpt>
      <trkpt lat="47.42323" lon="-0.52763">
        <ele>81.3689</ele>
        <time>2012-10-13T08:03:49Z</time>
      </trkpt>
      <trkpt lat="47.42312" lon="-0.52731">
        <ele>85.99</ele>
        <time>2012-10-13T08:03:55Z</time>
      </trkpt>
      <trkpt lat="47.42302" lon="-0.52706">
        <ele>89.3268</ele>
        <time>2012-10-13T08:04:00Z</time>
      </trkpt>
      <trkpt lat="47.42296" lon="-0.52666">
        <ele>85.1369</ele>
        <time>2012-10-13T08:04:05Z</time>
      </trkpt>
      <trkpt lat="47.42289" lon="-0.52646">
        <ele>83.16</ele>
        <time>2012-10-13T08:04:08Z</time>
      </trkpt>
      <trkpt lat="47.42277" lon="-0.52607">
        <ele>78.5485</ele>
        <time>2012-10-13T08:04:14Z</time>
      </trkpt>
      <trkpt lat="47.42267" lon="-0.52573">
        <ele>75.5385</ele>
        <time>2012-10-13T08:04:19Z</time>
      </trkpt>
      <trkpt lat="47.42257" lon="-0.52532">
        <ele>76.3506</ele>
        <time>2012-10-13T08:04:25Z</time>
      </trkpt>
      <trkpt lat="47.42256" lon="-0.52495">
        <ele>78.3687</ele>
        <time>2012-10-13T08:04:30Z</time>
      </trkpt>
      <trkpt lat="47.42258" lon="-0.52467">
        <ele>79.7796</ele>
        <time>2012-10-13T08:04:34Z</time>
      </trkpt>
      <trkpt lat="47.42259" lon="-0.52427">
        <ele>81.7186</ele>
        <time>2012-10-13T08:04:40Z</time>
      </trkpt>
      <trkpt lat="47.42261" lon="-0.52394">
        <ele>83.0215</ele>
        <time>2012-10-13T08:04:47Z</time>
      </trkpt>
      <trkpt lat="47.42237" lon="-0.52372">
        <ele>75.3908</ele>
        <time>2012-10-13T08:04:57Z</time>
      </trkpt>
      <trkpt lat="47.42208" lon="-0.52368">
        <ele>72.4942</ele>
        <time>2012-10-13T08:05:04Z</time>
      </trkpt>
      <trkpt lat="47.42185" lon="-0.52366">
        <ele>71.9122</ele>
        <time>2012-10-13T08:05:09Z</time>
      </trkpt>
      <trkpt lat="47.42148" lon="-0.52362">
        <ele>71.5956</ele>
        <time>2012-10-13T08:05:17Z</time>
      </trkpt>
      <trkpt lat="47.42124" lon="-0.52361">
        <ele>71.2446</ele>
        <time>2012-10-13T08:05:22Z</time>
      </trkpt>
      <trkpt lat="47.42094" lon="-0.52359">
        <ele>70.5592</ele>
        <time>2012-10-13T08:05:28Z</time>
      </trkpt>
      <trkpt lat="47.42062" lon="-0.52356">
        <ele>69.9798</ele>
        <time>2012-10-13T08:05:34Z</time>
      </trkpt>
      <trkpt lat="47.42029" lon="-0.52354">
        <ele>69.396</ele>
        <time>2012-10-13T08:05:40Z</time>
      </trkpt>
      <trkpt lat="47.41997" lon="-0.52351">
        <ele>68.9737</ele>
        <time>2012-10-13T08:05:46Z</time>
      </trkpt>
      <trkpt lat="47.41976" lon="-0.52376">
        <ele>68.3215</ele>
        <time>2012-10-13T08:05:53Z</time>
      </trkpt>
      <trkpt lat="47.41973" lon="-0.52449">
        <ele>66.2389</ele>
        <time>2012-10-13T08:06:00Z</time>
      </trkpt>
      <trkpt lat="47.41968" lon="-0.5253">
        <ele>65.6565</ele>
        <time>2012-10-13T08:06:07Z</time>
      </trkpt>
      <trkpt lat="47.41951" lon="-0.52577">
        <ele>65.6277</ele>
        <time>2012-10-13T08:06:12Z</time>
      </trkpt>
      <trkpt lat="47.41937" lon="-0.52625">
        <ele>64.9408</ele>
        <time>2012-10-13T08:06:19Z</time>
      </trkpt>
      <trkpt lat="47.41936" lon="-0.52658">
        <ele>63.3334</ele>
        <time>2012-10-13T08:06:26Z</time>
      </trkpt>
      <trkpt lat="47.41934" lon="-0.52701">
        <ele>62.1513</ele>
        <time>2012-10-13T08:06:32Z</time>
      </trkpt>
      <trkpt lat="47.41925" lon="-0.52743">
        <ele>62.5298</ele>
        <time>2012-10-13T08:06:38Z</time>
      </trkpt>
      <trkpt lat="47.41918" lon="-0.5277">
        <ele>62.4858</ele>
        <time>2012-10-13T08:06:43Z</time>
      </trkpt>
      <trkpt lat="47.4191" lon="-0.52795">
        <ele>65.3022</ele>
        <time>2012-10-13T08:06:50Z</time>
      </trkpt>
      <trkpt lat="47.41907" lon="-0.52817">
        <ele>69.8741</ele>
        <time>2012-10-13T08:06:55Z</time>
      </trkpt>
      <trkpt lat="47.41904" lon="-0.52854">
        <ele>77.9071</ele>
        <time>2012-10-13T08:07:04Z</time>
      </trkpt>
      <trkpt lat="47.41904" lon="-0.52885">
        <ele>85.895</ele>
        <time>2012-10-13T08:07:12Z</time>
      </trkpt>
      <trkpt lat="47.41895" lon="-0.52924">
        <ele>90.2839</ele>
        <time>2012-10-13T08:07:18Z</time>
      </trkpt>
      <trkpt lat="47.41891" lon="-0.52955">
        <ele>95.1585</ele>
        <time>2012-10-13T08:07:24Z</time>
      </trkpt>
      <trkpt lat="47.41873" lon="-0.53009">
        <ele>105.489</ele>
        <time>2012-10-13T08:07:32Z</time>
      </trkpt>
      <trkpt lat="47.41866" lon="-0.53059">
        <ele>102.784</ele>
        <time>2012-10-13T08:07:38Z</time>
      </trkpt>
      <trkpt lat="47.41849" lon="-0.53078">
        <ele>87.9129</ele>
        <time>2012-10-13T08:07:45Z</time>
      </trkpt>
      <trkpt lat="47.41833" lon="-0.53081">
        <ele>72.6045</ele>
        <time>2012-10-13T08:07:52Z</time>
      </trkpt>
      <trkpt lat="47.41831" lon="-0.53041">
        <ele>69.7457</ele>
        <time>2012-10-13T08:07:59Z</time>
      </trkpt>
      <trkpt lat="47.41828" lon="-0.53014">
        <ele>69.8799</ele>
        <time>2012-10-13T08:08:04Z</time>
      </trkpt>
      <trkpt lat="47.41812" lon="-0.53008">
        <ele>66.9354</ele>
        <time>2012-10-13T08:08:12Z</time>
      </trkpt>
      <trkpt lat="47.41787" lon="-0.53005">
        <ele>65.4898</ele>
        <time>2012-10-13T08:08:23Z</time>
      </trkpt>
      <trkpt lat="47.41779" lon="-0.5302">
        <ele>66.0147</ele>
        <time>2012-10-13T08:08:35Z</time>
      </trkpt>
      <trkpt lat="47.4178" lon="-0.53049">
        <ele>65.2877</ele>
        <time>2012-10-13T08:08:47Z</time>
      </trkpt>
      <trkpt lat="47.41781" lon="-0.53102">
        <ele>64.6116</ele>
        <time>2012-10-13T08:08:56Z</time>
      </trkpt>
      <trkpt lat="47.4178" lon="-0.5315">
        <ele>63.9515</ele>
        <time>2012-10-13T08:09:04Z</time>
      </trkpt>
      <trkpt lat="47.41748" lon="-0.53161">
        <ele>63.2698</ele>
        <time>2012-10-13T08:09:10Z</time>
      </trkpt>
      <trkpt lat="47.4171" lon="-0.53157">
        <ele>62.9463</ele>
        <time>2012-10-13T08:09:16Z</time>
      </trkpt>
      <trkpt lat="47.41684" lon="-0.5315">
        <ele>63.0432</ele>
        <time>2012-10-13T08:09:22Z</time>
      </trkpt>
      <trkpt lat="47.41661" lon="-0.53137">
        <ele>62.0058</ele>
        <time>2012-10-13T08:09:28Z</time>
      </trkpt>
      <trkpt lat="47.41656" lon="-0.53098">
        <ele>62.4817</ele>
        <time>2012-10-13T08:09:34Z</time>
      </trkpt>
      <trkpt lat="47.41651" lon="-0.53053">
        <ele>62.9683</ele>
        <time>2012-10-13T08:09:40Z</time>
      </trkpt>
      <trkpt lat="47.41646" lon="-0.53007">
        <ele>63.3336</ele>
        <time>2012-10-13T08:09:46Z</time>
      </trkpt>
      <trkpt lat="47.41639" lon="-0.52952">
        <ele>63.8159</ele>
        <time>2012-10-13T08:09:53Z</time>
      </trkpt>
      <trkpt lat="47.41636" lon="-0.52897">
        <ele>64.5965</ele>
        <time>2012-10-13T08:10:00Z</time>
      </trkpt>
      <trkpt lat="47.41643" lon="-0.52858">
        <ele>64.7061</ele>
        <time>2012-10-13T08:10:05Z</time>
      </trkpt>
      <trkpt lat="47.41652" lon="-0.5281">
        <ele>65.2619</ele>
        <time>2012-10-13T08:10:11Z</time>
      </trkpt>
      <trkpt lat="47.41626" lon="-0.52766">
        <ele>64.8716</ele>
        <time>2012-10-13T08:10:18Z</time>
      </trkpt>
      <trkpt lat="47.41594" lon="-0.52739">
        <ele>64.3099</ele>
        <time>2012-10-13T08:10:24Z</time>
      </trkpt>
      <trkpt lat="47.41567" lon="-0.52717">
        <ele>63.9878</ele>
        <time>2012-10-13T08:10:29Z</time>
      </trkpt>
      <trkpt lat="47.41541" lon="-0.52695">
        <ele>63.4604</ele>
        <time>2012-10-13T08:10:34Z</time>
      </trkpt>
      <trkpt lat="47.41506" lon="-0.52669">
        <ele>63.5341</ele>
        <time>2012-10-13T08:10:41Z</time>
      </trkpt>
      <trkpt lat="47.41481" lon="-0.52662">
        <ele>62.2452</ele>
        <time>2012-10-13T08:10:47Z</time>
      </trkpt>
      <trkpt lat="47.41461" lon="-0.52651">
        <ele>62.0824</ele>
        <time>2012-10-13T08:10:53Z</time>
      </trkpt>
      <trkpt lat="47.41456" lon="-0.52646">
        <ele>61.714</ele>
        <time>2012-10-13T08:10:57Z</time>
      </trkpt>
      <trkpt lat="47.41439" lon="-0.5266">
        <ele>62.112</ele>
        <time>2012-10-13T08:11:17Z</time>
      </trkpt>
      <trkpt lat="47.41439" lon="-0.5266">
        <ele>62.112</ele>
        <time>2012-10-13T08:11:25Z</time>
      </trkpt>
      <trkpt lat="47.41439" lon="-0.52693">
        <ele>64.4187</ele>
        <time>2012-10-13T08:13:47Z</time>
      </trkpt>
      <trkpt lat="47.41439" lon="-0.52693">
        <ele>64.4187</ele>
        <time>2012-10-13T08:13:55Z</time>
      </trkpt>
      <trkpt lat="47.4145" lon="-0.52661">
        <ele>69.4342</ele>
        <time>2012-10-13T08:14:09Z</time>
      </trkpt>
      <trkpt lat="47.41424" lon="-0.52627">
        <ele>68.5446</ele>
        <time>2012-10-13T08:14:25Z</time>
      </trkpt>
      <trkpt lat="47.4141" lon="-0.52623">
        <ele>67.1855</ele>
        <time>2012-10-13T08:14:34Z</time>
      </trkpt>
      <trkpt lat="47.41402" lon="-0.52624">
        <ele>66.0119</ele>
        <time>2012-10-13T08:14:44Z</time>
      </trkpt>
      <trkpt lat="47.41384" lon="-0.52608">
        <ele>65.9887</ele>
        <time>2012-10-13T08:14:59Z</time>
      </trkpt>
      <trkpt lat="47.41374" lon="-0.52557">
        <ele>80.8278</ele>
        <time>2012-10-13T08:15:11Z</time>
      </trkpt>
      <trkpt lat="47.41359" lon="-0.52546">
        <ele>70.2099</ele>
        <time>2012-10-13T08:15:19Z</time>
      </trkpt>
      <trkpt lat="47.41309" lon="-0.52596">
        <ele>65.5782</ele>
        <time>2012-10-13T08:15:33Z</time>
      </trkpt>
      <trkpt lat="47.41284" lon="-0.52619">
        <ele>65.022</ele>
        <time>2012-10-13T08:15:39Z</time>
      </trkpt>
      <trkpt lat="47.41262" lon="-0.52625">
        <ele>65.094</ele>
        <time>2012-10-13T08:15:44Z</time>
      </trkpt>
      <trkpt lat="47.4123" lon="-0.52632">
        <ele>64.3689</ele>
        <time>2012-10-13T08:15:52Z</time>
      </trkpt>
      <trkpt lat="47.41198" lon="-0.52632">
        <ele>63.8312</ele>
        <time>2012-10-13T08:15:58Z</time>
      </trkpt>
      <trkpt lat="47.4118" lon="-0.52621">
        <ele>64.1658</ele>
        <time>2012-10-13T08:16:03Z</time>
      </trkpt>
      <trkpt lat="47.41196" lon="-0.52571">
        <ele>65.0938</ele>
        <time>2012-10-13T08:16:11Z</time>
      </trkpt>
      <trkpt lat="47.41208" lon="-0.5253">
        <ele>67.7855</ele>
        <time>2012-10-13T08:16:17Z</time>
      </trkpt>
      <trkpt lat="47.4121" lon="-0.52492">
        <ele>69.166</ele>
        <time>2012-10-13T08:16:22Z</time>
      </trkpt>
      <trkpt lat="47.41208" lon="-0.52453">
        <ele>69.3571</ele>
        <time>2012-10-13T08:16:27Z</time>
      </trkpt>
      <trkpt lat="47.41201" lon="-0.52417">
        <ele>69.0898</ele>
        <time>2012-10-13T08:16:32Z</time>
      </trkpt>
      <trkpt lat="47.41191" lon="-0.52392">
        <ele>68.5571</ele>
        <time>2012-10-13T08:16:40Z</time>
      </trkpt>
      <trkpt lat="47.41147" lon="-0.52405">
        <ele>66.1758</ele>
        <time>2012-10-13T08:16:51Z</time>
      </trkpt>
      <trkpt lat="47.41118" lon="-0.52415">
        <ele>65.7551</ele>
        <time>2012-10-13T08:16:57Z</time>
      </trkpt>
      <trkpt lat="47.41088" lon="-0.52426">
        <ele>65.4772</ele>
        <time>2012-10-13T08:17:03Z</time>
      </trkpt>
      <trkpt lat="47.41057" lon="-0.52437">
        <ele>65.4924</ele>
        <time>2012-10-13T08:17:09Z</time>
      </trkpt>
      <trkpt lat="47.41029" lon="-0.52447">
        <ele>65.4438</ele>
        <time>2012-10-13T08:17:14Z</time>
      </trkpt>
      <trkpt lat="47.40993" lon="-0.52459">
        <ele>65.1317</ele>
        <time>2012-10-13T08:17:20Z</time>
      </trkpt>
      <trkpt lat="47.40953" lon="-0.52478">
        <ele>64.848</ele>
        <time>2012-10-13T08:17:27Z</time>
      </trkpt>
      <trkpt lat="47.40924" lon="-0.5249">
        <ele>64.3891</ele>
        <time>2012-10-13T08:17:33Z</time>
      </trkpt>
      <trkpt lat="47.40905" lon="-0.52472">
        <ele>64.6932</ele>
        <time>2012-10-13T08:17:38Z</time>
      </trkpt>
      <trkpt lat="47.40927" lon="-0.52423">
        <ele>65.7244</ele>
        <time>2012-10-13T08:17:45Z</time>
      </trkpt>
      <trkpt lat="47.40937" lon="-0.52363">
        <ele>65.9168</ele>
        <time>2012-10-13T08:17:51Z</time>
      </trkpt>
      <trkpt lat="47.40948" lon="-0.52297">
        <ele>67.1536</ele>
        <time>2012-10-13T08:17:57Z</time>
      </trkpt>
      <trkpt lat="47.40959" lon="-0.52245">
        <ele>67.3574</ele>
        <time>2012-10-13T08:18:02Z</time>
      </trkpt>
      <trkpt lat="47.40972" lon="-0.52196">
        <ele>65.7493</ele>
        <time>2012-10-13T08:18:07Z</time>
      </trkpt>
      <trkpt lat="47.40987" lon="-0.52135">
        <ele>64.1935</ele>
        <time>2012-10-13T08:18:13Z</time>
      </trkpt>
      <trkpt lat="47.40994" lon="-0.52083">
        <ele>65.5927</ele>
        <time>2012-10-13T08:18:18Z</time>
      </trkpt>
      <trkpt lat="47.41003" lon="-0.52018">
        <ele>69.5608</ele>
        <time>2012-10-13T08:18:24Z</time>
      </trkpt>
      <trkpt lat="47.41011" lon="-0.51953">
        <ele>74.4609</ele>
        <time>2012-10-13T08:18:30Z</time>
      </trkpt>
      <trkpt lat="47.41015" lon="-0.51896">
        <ele>80.9301</ele>
        <time>2012-10-13T08:18:36Z</time>
      </trkpt>
      <trkpt lat="47.41025" lon="-0.51849">
        <ele>84.8667</ele>
        <time>2012-10-13T08:18:41Z</time>
      </trkpt>
      <trkpt lat="47.41032" lon="-0.51789">
        <ele>86.7032</ele>
        <time>2012-10-13T08:18:48Z</time>
      </trkpt>
      <trkpt lat="47.41039" lon="-0.51712">
        <ele>88.3583</ele>
        <time>2012-10-13T08:18:54Z</time>
      </trkpt>
      <trkpt lat="47.41052" lon="-0.51641">
        <ele>83.8931</ele>
        <time>2012-10-13T08:19:00Z</time>
      </trkpt>
      <trkpt lat="47.41063" lon="-0.51576">
        <ele>81.944</ele>
        <time>2012-10-13T08:19:06Z</time>
      </trkpt>
      <trkpt lat="47.41073" lon="-0.51512">
        <ele>81.142</ele>
        <time>2012-10-13T08:19:13Z</time>
      </trkpt>
      <trkpt lat="47.41077" lon="-0.51473">
        <ele>82.6238</ele>
        <time>2012-10-13T08:19:18Z</time>
      </trkpt>
      <trkpt lat="47.4108" lon="-0.51431">
        <ele>86.2276</ele>
        <time>2012-10-13T08:19:24Z</time>
      </trkpt>
      <trkpt lat="47.41067" lon="-0.51399">
        <ele>80.2927</ele>
        <time>2012-10-13T08:19:29Z</time>
      </trkpt>
      <trkpt lat="47.41049" lon="-0.51366">
        <ele>77.7535</ele>
        <time>2012-10-13T08:19:35Z</time>
      </trkpt>
      <trkpt lat="47.41016" lon="-0.51346">
        <ele>80.3026</ele>
        <time>2012-10-13T08:19:41Z</time>
      </trkpt>
      <trkpt lat="47.40987" lon="-0.51332">
        <ele>82.2649</ele>
        <time>2012-10-13T08:19:47Z</time>
      </trkpt>
      <trkpt lat="47.40962" lon="-0.51319">
        <ele>84.4276</ele>
        <time>2012-10-13T08:19:52Z</time>
      </trkpt>
      <trkpt lat="47.40931" lon="-0.51325">
        <ele>85.5678</ele>
        <time>2012-10-13T08:19:57Z</time>
      </trkpt>
      <trkpt lat="47.40901" lon="-0.51326">
        <ele>85.7287</ele>
        <time>2012-10-13T08:20:03Z</time>
      </trkpt>
      <trkpt lat="47.40875" lon="-0.51303">
        <ele>88.7151</ele>
        <time>2012-10-13T08:20:08Z</time>
      </trkpt>
      <trkpt lat="47.40862" lon="-0.51263">
        <ele>101.486</ele>
        <time>2012-10-13T08:20:16Z</time>
      </trkpt>
      <trkpt lat="47.40858" lon="-0.51238">
        <ele>120.768</ele>
        <time>2012-10-13T08:20:22Z</time>
      </trkpt>
      <trkpt lat="47.40848" lon="-0.51196">
        <ele>146.614</ele>
        <time>2012-10-13T08:20:31Z</time>
      </trkpt>
      <trkpt lat="47.40853" lon="-0.51158">
        <ele>155.983</ele>
        <time>2012-10-13T08:20:36Z</time>
      </trkpt>
      <trkpt lat="47.40863" lon="-0.51111">
        <ele>157.26</ele>
        <time>2012-10-13T08:20:41Z</time>
      </trkpt>
      <trkpt lat="47.40882" lon="-0.51051">
        <ele>159.043</ele>
        <time>2012-10-13T08:20:47Z</time>
      </trkpt>
      <trkpt lat="47.40876" lon="-0.50999">
        <ele>151.581</ele>
        <time>2012-10-13T08:20:52Z</time>
      </trkpt>
      <trkpt lat="47.40851" lon="-0.50957">
        <ele>128.007</ele>
        <time>2012-10-13T08:20:58Z</time>
      </trkpt>
      <trkpt lat="47.40825" lon="-0.50934">
        <ele>123.228</ele>
        <time>2012-10-13T08:21:05Z</time>
      </trkpt>
      <trkpt lat="47.40798" lon="-0.50929">
        <ele>107.565</ele>
        <time>2012-10-13T08:21:11Z</time>
      </trkpt>
      <trkpt lat="47.40752" lon="-0.50937">
        <ele>98.1688</ele>
        <time>2012-10-13T08:21:19Z</time>
      </trkpt>
      <trkpt lat="47.40722" lon="-0.50947">
        <ele>90.3918</ele>
        <time>2012-10-13T08:21:24Z</time>
      </trkpt>
      <trkpt lat="47.40687" lon="-0.50958">
        <ele>86.6117</ele>
        <time>2012-10-13T08:21:30Z</time>
      </trkpt>
      <trkpt lat="47.40658" lon="-0.5097">
        <ele>82.6377</ele>
        <time>2012-10-13T08:21:35Z</time>
      </trkpt>
      <trkpt lat="47.4063" lon="-0.50981">
        <ele>77.9783</ele>
        <time>2012-10-13T08:21:40Z</time>
      </trkpt>
      <trkpt lat="47.40607" lon="-0.50981">
        <ele>70.6378</ele>
        <time>2012-10-13T08:21:46Z</time>
      </trkpt>
      <trkpt lat="47.40584" lon="-0.50945">
        <ele>69.6192</ele>
        <time>2012-10-13T08:21:53Z</time>
      </trkpt>
      <trkpt lat="47.40589" lon="-0.50934">
        <ele>68.369</ele>
        <time>2012-10-13T08:22:01Z</time>
      </trkpt>
      <trkpt lat="47.40618" lon="-0.50925">
        <ele>78.185</ele>
        <time>2012-10-13T08:22:13Z</time>
      </trkpt>
      <trkpt lat="47.40645" lon="-0.50914">
        <ele>85.1707</ele>
        <time>2012-10-13T08:22:21Z</time>
      </trkpt>
      <trkpt lat="47.40683" lon="-0.50911">
        <ele>94.9469</ele>
        <time>2012-10-13T08:22:28Z</time>
      </trkpt>
      <trkpt lat="47.40715" lon="-0.50896">
        <ele>91.2055</ele>
        <time>2012-10-13T08:22:33Z</time>
      </trkpt>
      <trkpt lat="47.40745" lon="-0.50864">
        <ele>90.9994</ele>
        <time>2012-10-13T08:22:39Z</time>
      </trkpt>
      <trkpt lat="47.40761" lon="-0.50798">
        <ele>90.1207</ele>
        <time>2012-10-13T08:22:46Z</time>
      </trkpt>
      <trkpt lat="47.40766" lon="-0.50742">
        <ele>88.6985</ele>
        <time>2012-10-13T08:22:52Z</time>
      </trkpt>
      <trkpt lat="47.4077" lon="-0.50671">
        <ele>87.4909</ele>
        <time>2012-10-13T08:22:59Z</time>
      </trkpt>
      <trkpt lat="47.4078" lon="-0.50619">
        <ele>85.8428</ele>
        <time>2012-10-13T08:23:04Z</time>
      </trkpt>
      <trkpt lat="47.40793" lon="-0.50559">
        <ele>83.8775</ele>
        <time>2012-10-13T08:23:10Z</time>
      </trkpt>
      <trkpt lat="47.40792" lon="-0.50509">
        <ele>81.6857</ele>
        <time>2012-10-13T08:23:15Z</time>
      </trkpt>
      <trkpt lat="47.40786" lon="-0.50439">
        <ele>81.3168</ele>
        <time>2012-10-13T08:23:22Z</time>
      </trkpt>
      <trkpt lat="47.40786" lon="-0.50365">
        <ele>79.0572</ele>
        <time>2012-10-13T08:23:29Z</time>
      </trkpt>
      <trkpt lat="47.40786" lon="-0.50313">
        <ele>79.4132</ele>
        <time>2012-10-13T08:23:34Z</time>
      </trkpt>
      <trkpt lat="47.40786" lon="-0.5028">
        <ele>78.3975</ele>
        <time>2012-10-13T08:23:37Z</time>
      </trkpt>
      <trkpt lat="47.40785" lon="-0.50227">
        <ele>78.4504</ele>
        <time>2012-10-13T08:23:42Z</time>
      </trkpt>
      <trkpt lat="47.40784" lon="-0.5017">
        <ele>78.367</ele>
        <time>2012-10-13T08:23:47Z</time>
      </trkpt>
      <trkpt lat="47.40784" lon="-0.50104">
        <ele>78.5946</ele>
        <time>2012-10-13T08:23:53Z</time>
      </trkpt>
      <trkpt lat="47.40784" lon="-0.5005">
        <ele>78.0958</ele>
        <time>2012-10-13T08:23:58Z</time>
      </trkpt>
      <trkpt lat="47.40782" lon="-0.49998">
        <ele>77.6633</ele>
        <time>2012-10-13T08:24:03Z</time>
      </trkpt>
      <trkpt lat="47.40782" lon="-0.49946">
        <ele>77.3506</ele>
        <time>2012-10-13T08:24:08Z</time>
      </trkpt>
      <trkpt lat="47.40782" lon="-0.4989">
        <ele>81.6382</ele>
        <time>2012-10-13T08:24:14Z</time>
      </trkpt>
      <trkpt lat="47.40791" lon="-0.49849">
        <ele>86.921</ele>
        <time>2012-10-13T08:24:19Z</time>
      </trkpt>
      <trkpt lat="47.40792" lon="-0.49803">
        <ele>91.8598</ele>
        <time>2012-10-13T08:24:24Z</time>
      </trkpt>
      <trkpt lat="47.40799" lon="-0.49742">
        <ele>96.1304</ele>
        <time>2012-10-13T08:24:30Z</time>
      </trkpt>
      <trkpt lat="47.40803" lon="-0.49687">
        <ele>94.8426</ele>
        <time>2012-10-13T08:24:35Z</time>
      </trkpt>
      <trkpt lat="47.40808" lon="-0.49604">
        <ele>87.8569</ele>
        <time>2012-10-13T08:24:42Z</time>
      </trkpt>
      <trkpt lat="47.40813" lon="-0.4953">
        <ele>88.2814</ele>
        <time>2012-10-13T08:24:49Z</time>
      </trkpt>
      <trkpt lat="47.40815" lon="-0.49475">
        <ele>91.8522</ele>
        <time>2012-10-13T08:24:55Z</time>
      </trkpt>
      <trkpt lat="47.40787" lon="-0.49418">
        <ele>89.5316</ele>
        <time>2012-10-13T08:25:02Z</time>
      </trkpt>
      <trkpt lat="47.40787" lon="-0.49361">
        <ele>107.162</ele>
        <time>2012-10-13T08:25:08Z</time>
      </trkpt>
      <trkpt lat="47.40799" lon="-0.49294">
        <ele>109.783</ele>
        <time>2012-10-13T08:25:14Z</time>
      </trkpt>
      <trkpt lat="47.40802" lon="-0.49239">
        <ele>108.944</ele>
        <time>2012-10-13T08:25:20Z</time>
      </trkpt>
      <trkpt lat="47.40806" lon="-0.49173">
        <ele>108.818</ele>
        <time>2012-10-13T08:25:26Z</time>
      </trkpt>
      <trkpt lat="47.40823" lon="-0.49094">
        <ele>105.999</ele>
        <time>2012-10-13T08:25:32Z</time>
      </trkpt>
      <trkpt lat="47.40815" lon="-0.49008">
        <ele>106.963</ele>
        <time>2012-10-13T08:25:40Z</time>
      </trkpt>
      <trkpt lat="47.40818" lon="-0.48954">
        <ele>108.51</ele>
        <time>2012-10-13T08:25:46Z</time>
      </trkpt>
      <trkpt lat="47.40824" lon="-0.48896">
        <ele>108.167</ele>
        <time>2012-10-13T08:25:52Z</time>
      </trkpt>
      <trkpt lat="47.4083" lon="-0.48852">
        <ele>106.396</ele>
        <time>2012-10-13T08:25:57Z</time>
      </trkpt>
      <trkpt lat="47.40829" lon="-0.48801">
        <ele>104.737</ele>
        <time>2012-10-13T08:26:03Z</time>
      </trkpt>
      <trkpt lat="47.4082" lon="-0.48752">
        <ele>112.304</ele>
        <time>2012-10-13T08:26:09Z</time>
      </trkpt>
      <trkpt lat="47.40816" lon="-0.48695">
        <ele>120.113</ele>
        <time>2012-10-13T08:26:15Z</time>
      </trkpt>
      <trkpt lat="47.40812" lon="-0.48647">
        <ele>115.117</ele>
        <time>2012-10-13T08:26:19Z</time>
      </trkpt>
      <trkpt lat="47.408" lon="-0.48583">
        <ele>112.733</ele>
        <time>2012-10-13T08:26:25Z</time>
      </trkpt>
      <trkpt lat="47.4079" lon="-0.4852">
        <ele>107.851</ele>
        <time>2012-10-13T08:26:31Z</time>
      </trkpt>
      <trkpt lat="47.40795" lon="-0.48455">
        <ele>107.562</ele>
        <time>2012-10-13T08:26:37Z</time>
      </trkpt>
      <trkpt lat="47.40798" lon="-0.48395">
        <ele>106.356</ele>
        <time>2012-10-13T08:26:43Z</time>
      </trkpt>
      <trkpt lat="47.40802" lon="-0.48331">
        <ele>102.762</ele>
        <time>2012-10-13T08:26:50Z</time>
      </trkpt>
      <trkpt lat="47.40812" lon="-0.48283">
        <ele>99.592</ele>
        <time>2012-10-13T08:26:55Z</time>
      </trkpt>
      <trkpt lat="47.40824" lon="-0.48228">
        <ele>97.2596</ele>
        <time>2012-10-13T08:27:01Z</time>
      </trkpt>
      <trkpt lat="47.40835" lon="-0.48177">
        <ele>94.1194</ele>
        <time>2012-10-13T08:27:07Z</time>
      </trkpt>
      <trkpt lat="47.40848" lon="-0.48122">
        <ele>92.317</ele>
        <time>2012-10-13T08:27:13Z</time>
      </trkpt>
      <trkpt lat="47.40868" lon="-0.48072">
        <ele>89.8694</ele>
        <time>2012-10-13T08:27:19Z</time>
      </trkpt>
      <trkpt lat="47.40864" lon="-0.48019">
        <ele>87.0736</ele>
        <time>2012-10-13T08:27:25Z</time>
      </trkpt>
      <trkpt lat="47.40858" lon="-0.47974">
        <ele>83.9889</ele>
        <time>2012-10-13T08:27:30Z</time>
      </trkpt>
      <trkpt lat="47.40854" lon="-0.47916">
        <ele>79.9212</ele>
        <time>2012-10-13T08:27:36Z</time>
      </trkpt>
      <trkpt lat="47.40845" lon="-0.47873">
        <ele>82.156</ele>
        <time>2012-10-13T08:27:42Z</time>
      </trkpt>
      <trkpt lat="47.40834" lon="-0.4783">
        <ele>87.4499</ele>
        <time>2012-10-13T08:27:49Z</time>
      </trkpt>
      <trkpt lat="47.40828" lon="-0.47798">
        <ele>93.4351</ele>
        <time>2012-10-13T08:27:54Z</time>
      </trkpt>
      <trkpt lat="47.40829" lon="-0.47757">
        <ele>95.8168</ele>
        <time>2012-10-13T08:27:59Z</time>
      </trkpt>
      <trkpt lat="47.4083" lon="-0.47711">
        <ele>84.4176</ele>
        <time>2012-10-13T08:28:05Z</time>
      </trkpt>
      <trkpt lat="47.40827" lon="-0.47682">
        <ele>83.1237</ele>
        <time>2012-10-13T08:28:19Z</time>
      </trkpt>
      <trkpt lat="47.40822" lon="-0.47603">
        <ele>84.3589</ele>
        <time>2012-10-13T08:28:31Z</time>
      </trkpt>
      <trkpt lat="47.40819" lon="-0.47563">
        <ele>82.452</ele>
        <time>2012-10-13T08:28:36Z</time>
      </trkpt>
      <trkpt lat="47.40814" lon="-0.4751">
        <ele>78.9145</ele>
        <time>2012-10-13T08:28:42Z</time>
      </trkpt>
      <trkpt lat="47.40797" lon="-0.47458">
        <ele>79.0357</ele>
        <time>2012-10-13T08:28:49Z</time>
      </trkpt>
      <trkpt lat="47.40783" lon="-0.47436">
        <ele>80.0061</ele>
        <time>2012-10-13T08:28:55Z</time>
      </trkpt>
      <trkpt lat="47.40768" lon="-0.474">
        <ele>81.9747</ele>
        <time>2012-10-13T08:29:02Z</time>
      </trkpt>
      <trkpt lat="47.40752" lon="-0.47369">
        <ele>77.2056</ele>
        <time>2012-10-13T08:29:07Z</time>
      </trkpt>
      <trkpt lat="47.40737" lon="-0.47359">
        <ele>77.1426</ele>
        <time>2012-10-13T08:29:11Z</time>
      </trkpt>
      <trkpt lat="47.40708" lon="-0.47336">
        <ele>72.57</ele>
        <time>2012-10-13T08:29:17Z</time>
      </trkpt>
      <trkpt lat="47.40677" lon="-0.47295">
        <ele>72.4923</ele>
        <time>2012-10-13T08:29:24Z</time>
      </trkpt>
      <trkpt lat="47.40662" lon="-0.47275">
        <ele>72.693</ele>
        <time>2012-10-13T08:29:29Z</time>
      </trkpt>
      <trkpt lat="47.40641" lon="-0.4724">
        <ele>79.3347</ele>
        <time>2012-10-13T08:29:37Z</time>
      </trkpt>
      <trkpt lat="47.40641" lon="-0.47214">
        <ele>90.8385</ele>
        <time>2012-10-13T08:29:45Z</time>
      </trkpt>
      <trkpt lat="47.4064" lon="-0.47196">
        <ele>95.5049</ele>
        <time>2012-10-13T08:29:51Z</time>
      </trkpt>
      <trkpt lat="47.40639" lon="-0.47154">
        <ele>104.471</ele>
        <time>2012-10-13T08:29:58Z</time>
      </trkpt>
      <trkpt lat="47.40638" lon="-0.47114">
        <ele>108.229</ele>
        <time>2012-10-13T08:30:04Z</time>
      </trkpt>
      <trkpt lat="47.40638" lon="-0.47082">
        <ele>111.664</ele>
        <time>2012-10-13T08:30:10Z</time>
      </trkpt>
      <trkpt lat="47.40642" lon="-0.47056">
        <ele>110.543</ele>
        <time>2012-10-13T08:30:15Z</time>
      </trkpt>
      <trkpt lat="47.4065" lon="-0.47025">
        <ele>111.598</ele>
        <time>2012-10-13T08:30:21Z</time>
      </trkpt>
      <trkpt lat="47.40644" lon="-0.46988">
        <ele>115.155</ele>
        <time>2012-10-13T08:30:27Z</time>
      </trkpt>
      <trkpt lat="47.40647" lon="-0.46929">
        <ele>115.834</ele>
        <time>2012-10-13T08:30:35Z</time>
      </trkpt>
      <trkpt lat="47.40642" lon="-0.46877">
        <ele>120.353</ele>
        <time>2012-10-13T08:30:42Z</time>
      </trkpt>
      <trkpt lat="47.40652" lon="-0.46835">
        <ele>123.23</ele>
        <time>2012-10-13T08:30:47Z</time>
      </trkpt>
      <trkpt lat="47.4064" lon="-0.468">
        <ele>113.267</ele>
        <time>2012-10-13T08:30:52Z</time>
      </trkpt>
      <trkpt lat="47.4063" lon="-0.46757">
        <ele>111.564</ele>
        <time>2012-10-13T08:30:58Z</time>
      </trkpt>
      <trkpt lat="47.40622" lon="-0.46709">
        <ele>108.409</ele>
        <time>2012-10-13T08:31:04Z</time>
      </trkpt>
      <trkpt lat="47.40613" lon="-0.46668">
        <ele>107.483</ele>
        <time>2012-10-13T08:31:09Z</time>
      </trkpt>
      <trkpt lat="47.40599" lon="-0.46611">
        <ele>110.826</ele>
        <time>2012-10-13T08:31:16Z</time>
      </trkpt>
      <trkpt lat="47.40589" lon="-0.46573">
        <ele>114.715</ele>
        <time>2012-10-13T08:31:23Z</time>
      </trkpt>
      <trkpt lat="47.40579" lon="-0.46524">
        <ele>111.981</ele>
        <time>2012-10-13T08:31:29Z</time>
      </trkpt>
      <trkpt lat="47.40557" lon="-0.46479">
        <ele>115.851</ele>
        <time>2012-10-13T08:31:35Z</time>
      </trkpt>
      <trkpt lat="47.40558" lon="-0.46443">
        <ele>100.757</ele>
        <time>2012-10-13T08:31:41Z</time>
      </trkpt>
      <trkpt lat="47.40535" lon="-0.46461">
        <ele>93.3833</ele>
        <time>2012-10-13T08:31:55Z</time>
      </trkpt>
      <trkpt lat="47.40512" lon="-0.46485">
        <ele>81.7056</ele>
        <time>2012-10-13T08:32:05Z</time>
      </trkpt>
      <trkpt lat="47.40498" lon="-0.46508">
        <ele>79.6386</ele>
        <time>2012-10-13T08:32:13Z</time>
      </trkpt>
      <trkpt lat="47.40505" lon="-0.46534">
        <ele>77.3527</ele>
        <time>2012-10-13T08:32:24Z</time>
      </trkpt>
      <trkpt lat="47.40519" lon="-0.46588">
        <ele>75.3235</ele>
        <time>2012-10-13T08:32:41Z</time>
      </trkpt>
      <trkpt lat="47.40501" lon="-0.46616">
        <ele>73.7388</ele>
        <time>2012-10-13T08:32:49Z</time>
      </trkpt>
      <trkpt lat="47.40473" lon="-0.46617">
        <ele>74.9766</ele>
        <time>2012-10-13T08:32:57Z</time>
      </trkpt>
      <trkpt lat="47.40456" lon="-0.46604">
        <ele>84.337</ele>
        <time>2012-10-13T08:33:06Z</time>
      </trkpt>
      <trkpt lat="47.40436" lon="-0.46611">
        <ele>80.1351</ele>
        <time>2012-10-13T08:33:11Z</time>
      </trkpt>
      <trkpt lat="47.40415" lon="-0.46611">
        <ele>79.5598</ele>
        <time>2012-10-13T08:33:17Z</time>
      </trkpt>
      <trkpt lat="47.40395" lon="-0.46619">
        <ele>82.5104</ele>
        <time>2012-10-13T08:33:25Z</time>
      </trkpt>
      <trkpt lat="47.40385" lon="-0.46637">
        <ele>73.3367</ele>
        <time>2012-10-13T08:33:33Z</time>
      </trkpt>
      <trkpt lat="47.40385" lon="-0.46668">
        <ele>73.9054</ele>
        <time>2012-10-13T08:33:47Z</time>
      </trkpt>
      <trkpt lat="47.404" lon="-0.46695">
        <ele>78.9393</ele>
        <time>2012-10-13T08:33:55Z</time>
      </trkpt>
      <trkpt lat="47.40426" lon="-0.46711">
        <ele>90.7609</ele>
        <time>2012-10-13T08:34:05Z</time>
      </trkpt>
      <trkpt lat="47.40438" lon="-0.4672">
        <ele>93.3872</ele>
        <time>2012-10-13T08:34:13Z</time>
      </trkpt>
      <trkpt lat="47.40434" lon="-0.46769">
        <ele>96.6049</ele>
        <time>2012-10-13T08:34:28Z</time>
      </trkpt>
      <trkpt lat="47.40445" lon="-0.46807">
        <ele>102.169</ele>
        <time>2012-10-13T08:34:36Z</time>
      </trkpt>
      <trkpt lat="47.40448" lon="-0.46823">
        <ele>104.019</ele>
        <time>2012-10-13T08:34:42Z</time>
      </trkpt>
      <trkpt lat="47.40459" lon="-0.46858">
        <ele>104.247</ele>
        <time>2012-10-13T08:34:55Z</time>
      </trkpt>
      <trkpt lat="47.4048" lon="-0.46902">
        <ele>105.083</ele>
        <time>2012-10-13T08:35:05Z</time>
      </trkpt>
      <trkpt lat="47.40492" lon="-0.46927">
        <ele>93.2266</ele>
        <time>2012-10-13T08:35:15Z</time>
      </trkpt>
      <trkpt lat="47.40511" lon="-0.46943">
        <ele>79.0864</ele>
        <time>2012-10-13T08:35:33Z</time>
      </trkpt>
      <trkpt lat="47.40519" lon="-0.46964">
        <ele>78.8914</ele>
        <time>2012-10-13T08:35:41Z</time>
      </trkpt>
      <trkpt lat="47.40539" lon="-0.46992">
        <ele>91.2918</ele>
        <time>2012-10-13T08:35:53Z</time>
      </trkpt>
      <trkpt lat="47.4054" lon="-0.47003">
        <ele>97.8388</ele>
        <time>2012-10-13T08:36:02Z</time>
      </trkpt>
      <trkpt lat="47.40539" lon="-0.47025">
        <ele>103.184</ele>
        <time>2012-10-13T08:36:15Z</time>
      </trkpt>
      <trkpt lat="47.40516" lon="-0.47062">
        <ele>101.32</ele>
        <time>2012-10-13T08:36:27Z</time>
      </trkpt>
      <trkpt lat="47.40517" lon="-0.47107">
        <ele>103.773</ele>
        <time>2012-10-13T08:36:37Z</time>
      </trkpt>
      <trkpt lat="47.40513" lon="-0.47145">
        <ele>99.3188</ele>
        <time>2012-10-13T08:36:47Z</time>
      </trkpt>
      <trkpt lat="47.40499" lon="-0.47137">
        <ele>91.7808</ele>
        <time>2012-10-13T08:36:56Z</time>
      </trkpt>
      <trkpt lat="47.40473" lon="-0.47143">
        <ele>93.6522</ele>
        <time>2012-10-13T08:37:06Z</time>
      </trkpt>
      <trkpt lat="47.4045" lon="-0.47085">
        <ele>107.66</ele>
        <time>2012-10-13T08:37:22Z</time>
      </trkpt>
      <trkpt lat="47.40436" lon="-0.47083">
        <ele>107.283</ele>
        <time>2012-10-13T08:37:31Z</time>
      </trkpt>
      <trkpt lat="47.40404" lon="-0.47103">
        <ele>101.625</ele>
        <time>2012-10-13T08:37:41Z</time>
      </trkpt>
      <trkpt lat="47.40404" lon="-0.47132">
        <ele>96.0685</ele>
        <time>2012-10-13T08:37:47Z</time>
      </trkpt>
      <trkpt lat="47.40404" lon="-0.47152">
        <ele>95.1061</ele>
        <time>2012-10-13T08:37:52Z</time>
      </trkpt>
      <trkpt lat="47.40393" lon="-0.47158">
        <ele>91.4777</ele>
        <time>2012-10-13T08:37:58Z</time>
      </trkpt>
      <trkpt lat="47.40363" lon="-0.47139">
        <ele>89.7206</ele>
        <time>2012-10-13T08:38:07Z</time>
      </trkpt>
      <trkpt lat="47.40337" lon="-0.47129">
        <ele>92.7636</ele>
        <time>2012-10-13T08:38:14Z</time>
      </trkpt>
      <trkpt lat="47.40318" lon="-0.47117">
        <ele>96.1596</ele>
        <time>2012-10-13T08:38:20Z</time>
      </trkpt>
      <trkpt lat="47.40295" lon="-0.47101">
        <ele>94.4239</ele>
        <time>2012-10-13T08:38:26Z</time>
      </trkpt>
      <trkpt lat="47.40269" lon="-0.47086">
        <ele>92.8855</ele>
        <time>2012-10-13T08:38:32Z</time>
      </trkpt>
      <trkpt lat="47.40231" lon="-0.47069">
        <ele>89.1616</ele>
        <time>2012-10-13T08:38:40Z</time>
      </trkpt>
      <trkpt lat="47.40208" lon="-0.4706">
        <ele>88.5295</ele>
        <time>2012-10-13T08:38:45Z</time>
      </trkpt>
      <trkpt lat="47.40178" lon="-0.47051">
        <ele>86.4453</ele>
        <time>2012-10-13T08:38:51Z</time>
      </trkpt>
      <trkpt lat="47.40144" lon="-0.47041">
        <ele>85.9822</ele>
        <time>2012-10-13T08:38:58Z</time>
      </trkpt>
      <trkpt lat="47.4012" lon="-0.47038">
        <ele>86.4423</ele>
        <time>2012-10-13T08:39:03Z</time>
      </trkpt>
      <trkpt lat="47.40081" lon="-0.4704">
        <ele>83.2346</ele>
        <time>2012-10-13T08:39:10Z</time>
      </trkpt>
      <trkpt lat="47.40057" lon="-0.47046">
        <ele>82.3712</ele>
        <time>2012-10-13T08:39:15Z</time>
      </trkpt>
      <trkpt lat="47.40033" lon="-0.47068">
        <ele>80.2064</ele>
        <time>2012-10-13T08:39:22Z</time>
      </trkpt>
      <trkpt lat="47.40033" lon="-0.4711">
        <ele>78.2144</ele>
        <time>2012-10-13T08:39:27Z</time>
      </trkpt>
      <trkpt lat="47.40033" lon="-0.47149">
        <ele>76.3637</ele>
        <time>2012-10-13T08:39:32Z</time>
      </trkpt>
      <trkpt lat="47.40061" lon="-0.47183">
        <ele>75.1384</ele>
        <time>2012-10-13T08:39:39Z</time>
      </trkpt>
      <trkpt lat="47.4007" lon="-0.47219">
        <ele>77.4213</ele>
        <time>2012-10-13T08:39:45Z</time>
      </trkpt>
      <trkpt lat="47.4007" lon="-0.47242">
        <ele>76.8931</ele>
        <time>2012-10-13T08:39:48Z</time>
      </trkpt>
      <trkpt lat="47.40066" lon="-0.47292">
        <ele>75.3094</ele>
        <time>2012-10-13T08:39:54Z</time>
      </trkpt>
      <trkpt lat="47.40065" lon="-0.47337">
        <ele>74.9878</ele>
        <time>2012-10-13T08:39:59Z</time>
      </trkpt>
      <trkpt lat="47.40065" lon="-0.47376">
        <ele>76.7734</ele>
        <time>2012-10-13T08:40:04Z</time>
      </trkpt>
      <trkpt lat="47.40066" lon="-0.47438">
        <ele>79.1111</ele>
        <time>2012-10-13T08:40:11Z</time>
      </trkpt>
      <trkpt lat="47.40059" lon="-0.47479">
        <ele>80.1191</ele>
        <time>2012-10-13T08:40:17Z</time>
      </trkpt>
      <trkpt lat="47.4003" lon="-0.47486">
        <ele>78.9337</ele>
        <time>2012-10-13T08:40:24Z</time>
      </trkpt>
      <trkpt lat="47.39996" lon="-0.47483">
        <ele>77.2848</ele>
        <time>2012-10-13T08:40:30Z</time>
      </trkpt>
      <trkpt lat="47.39966" lon="-0.47469">
        <ele>78.9645</ele>
        <time>2012-10-13T08:40:35Z</time>
      </trkpt>
      <trkpt lat="47.39945" lon="-0.47439">
        <ele>97.2247</ele>
        <time>2012-10-13T08:40:43Z</time>
      </trkpt>
      <trkpt lat="47.39934" lon="-0.47416">
        <ele>113.066</ele>
        <time>2012-10-13T08:40:51Z</time>
      </trkpt>
      <trkpt lat="47.39893" lon="-0.47384">
        <ele>124.092</ele>
        <time>2012-10-13T08:41:00Z</time>
      </trkpt>
      <trkpt lat="47.3987" lon="-0.47333">
        <ele>130.748</ele>
        <time>2012-10-13T08:41:06Z</time>
      </trkpt>
      <trkpt lat="47.39848" lon="-0.47295">
        <ele>120.691</ele>
        <time>2012-10-13T08:41:12Z</time>
      </trkpt>
      <trkpt lat="47.3983" lon="-0.47264">
        <ele>113.872</ele>
        <time>2012-10-13T08:41:17Z</time>
      </trkpt>
      <trkpt lat="47.39822" lon="-0.47241">
        <ele>109.36</ele>
        <time>2012-10-13T08:41:20Z</time>
      </trkpt>
      <trkpt lat="47.39807" lon="-0.47212">
        <ele>102.059</ele>
        <time>2012-10-13T08:41:24Z</time>
      </trkpt>
      <trkpt lat="47.39788" lon="-0.47163">
        <ele>103.036</ele>
        <time>2012-10-13T08:41:31Z</time>
      </trkpt>
      <trkpt lat="47.39774" lon="-0.47125">
        <ele>105.198</ele>
        <time>2012-10-13T08:41:37Z</time>
      </trkpt>
      <trkpt lat="47.3978" lon="-0.47096">
        <ele>115.369</ele>
        <time>2012-10-13T08:41:44Z</time>
      </trkpt>
      <trkpt lat="47.39814" lon="-0.47059">
        <ele>117.579</ele>
        <time>2012-10-13T08:41:51Z</time>
      </trkpt>
      <trkpt lat="47.39827" lon="-0.47041">
        <ele>115.84</ele>
        <time>2012-10-13T08:41:56Z</time>
      </trkpt>
      <trkpt lat="47.39841" lon="-0.47028">
        <ele>107.837</ele>
        <time>2012-10-13T08:42:04Z</time>
      </trkpt>
      <trkpt lat="47.39877" lon="-0.47018">
        <ele>103.186</ele>
        <time>2012-10-13T08:42:13Z</time>
      </trkpt>
      <trkpt lat="47.39898" lon="-0.47014">
        <ele>101.697</ele>
        <time>2012-10-13T08:42:18Z</time>
      </trkpt>
      <trkpt lat="47.39922" lon="-0.47015">
        <ele>98.6455</ele>
        <time>2012-10-13T08:42:23Z</time>
      </trkpt>
      <trkpt lat="47.39949" lon="-0.47025">
        <ele>97.0143</ele>
        <time>2012-10-13T08:42:29Z</time>
      </trkpt>
      <trkpt lat="47.39976" lon="-0.47037">
        <ele>96.4645</ele>
        <time>2012-10-13T08:42:35Z</time>
      </trkpt>
      <trkpt lat="47.40006" lon="-0.4705">
        <ele>95.2226</ele>
        <time>2012-10-13T08:42:41Z</time>
      </trkpt>
      <trkpt lat="47.40034" lon="-0.47053">
        <ele>94.3914</ele>
        <time>2012-10-13T08:42:46Z</time>
      </trkpt>
      <trkpt lat="47.40064" lon="-0.47048">
        <ele>93.9606</ele>
        <time>2012-10-13T08:42:51Z</time>
      </trkpt>
      <trkpt lat="47.40104" lon="-0.47046">
        <ele>94.2393</ele>
        <time>2012-10-13T08:42:58Z</time>
      </trkpt>
      <trkpt lat="47.40133" lon="-0.47051">
        <ele>94.5117</ele>
        <time>2012-10-13T08:43:03Z</time>
      </trkpt>
      <trkpt lat="47.4017" lon="-0.47061">
        <ele>92.1494</ele>
        <time>2012-10-13T08:43:09Z</time>
      </trkpt>
      <trkpt lat="47.40219" lon="-0.47079">
        <ele>89.9498</ele>
        <time>2012-10-13T08:43:17Z</time>
      </trkpt>
      <trkpt lat="47.40263" lon="-0.471">
        <ele>86.3017</ele>
        <time>2012-10-13T08:43:24Z</time>
      </trkpt>
      <trkpt lat="47.40294" lon="-0.47119">
        <ele>85.6053</ele>
        <time>2012-10-13T08:43:29Z</time>
      </trkpt>
      <trkpt lat="47.40324" lon="-0.47137">
        <ele>85.0606</ele>
        <time>2012-10-13T08:43:34Z</time>
      </trkpt>
      <trkpt lat="47.40365" lon="-0.47157">
        <ele>84.7866</ele>
        <time>2012-10-13T08:43:41Z</time>
      </trkpt>
      <trkpt lat="47.40399" lon="-0.47179">
        <ele>80.8136</ele>
        <time>2012-10-13T08:43:48Z</time>
      </trkpt>
      <trkpt lat="47.40403" lon="-0.4718">
        <ele>79.8825</ele>
        <time>2012-10-13T08:43:54Z</time>
      </trkpt>
      <trkpt lat="47.40391" lon="-0.47137">
        <ele>83.5083</ele>
        <time>2012-10-13T08:44:07Z</time>
      </trkpt>
      <trkpt lat="47.40382" lon="-0.47096">
        <ele>81.3138</ele>
        <time>2012-10-13T08:44:16Z</time>
      </trkpt>
      <trkpt lat="47.40395" lon="-0.47062">
        <ele>80.892</ele>
        <time>2012-10-13T08:44:24Z</time>
      </trkpt>
      <trkpt lat="47.40395" lon="-0.47038">
        <ele>82.915</ele>
        <time>2012-10-13T08:44:33Z</time>
      </trkpt>
      <trkpt lat="47.40386" lon="-0.47024">
        <ele>87.4401</ele>
        <time>2012-10-13T08:44:39Z</time>
      </trkpt>
      <trkpt lat="47.40383" lon="-0.46983">
        <ele>91.0336</ele>
        <time>2012-10-13T08:44:48Z</time>
      </trkpt>
      <trkpt lat="47.40372" lon="-0.46943">
        <ele>97.3078</ele>
        <time>2012-10-13T08:44:54Z</time>
      </trkpt>
      <trkpt lat="47.40362" lon="-0.46905">
        <ele>104.282</ele>
        <time>2012-10-13T08:45:00Z</time>
      </trkpt>
      <trkpt lat="47.40355" lon="-0.46879">
        <ele>111.007</ele>
        <time>2012-10-13T08:45:06Z</time>
      </trkpt>
      <trkpt lat="47.40341" lon="-0.46807">
        <ele>107.305</ele>
        <time>2012-10-13T08:45:16Z</time>
      </trkpt>
      <trkpt lat="47.40333" lon="-0.46752">
        <ele>101.906</ele>
        <time>2012-10-13T08:45:22Z</time>
      </trkpt>
      <trkpt lat="47.40324" lon="-0.46721">
        <ele>99.5129</ele>
        <time>2012-10-13T08:45:28Z</time>
      </trkpt>
      <trkpt lat="47.40321" lon="-0.467">
        <ele>89.1235</ele>
        <time>2012-10-13T08:45:38Z</time>
      </trkpt>
      <trkpt lat="47.40328" lon="-0.4668">
        <ele>92.691</ele>
        <time>2012-10-13T08:45:47Z</time>
      </trkpt>
      <trkpt lat="47.40346" lon="-0.46654">
        <ele>100.603</ele>
        <time>2012-10-13T08:46:00Z</time>
      </trkpt>
      <trkpt lat="47.40351" lon="-0.46632">
        <ele>105.501</ele>
        <time>2012-10-13T08:46:07Z</time>
      </trkpt>
      <trkpt lat="47.40366" lon="-0.466">
        <ele>106.676</ele>
        <time>2012-10-13T08:46:21Z</time>
      </trkpt>
      <trkpt lat="47.40374" lon="-0.46589">
        <ele>103.552</ele>
        <time>2012-10-13T08:46:26Z</time>
      </trkpt>
      <trkpt lat="47.4039" lon="-0.46575">
        <ele>99.8554</ele>
        <time>2012-10-13T08:46:41Z</time>
      </trkpt>
      <trkpt lat="47.40395" lon="-0.46571">
        <ele>98.5907</ele>
        <time>2012-10-13T08:46:47Z</time>
      </trkpt>
      <trkpt lat="47.40365" lon="-0.46541">
        <ele>89.2114</ele>
        <time>2012-10-13T08:47:47Z</time>
      </trkpt>
      <trkpt lat="47.40368" lon="-0.46478">
        <ele>88.3322</ele>
        <time>2012-10-13T08:47:57Z</time>
      </trkpt>
      <trkpt lat="47.4038" lon="-0.46434">
        <ele>91.2065</ele>
        <time>2012-10-13T08:48:04Z</time>
      </trkpt>
      <trkpt lat="47.404" lon="-0.46413">
        <ele>90.8319</ele>
        <time>2012-10-13T08:48:10Z</time>
      </trkpt>
      <trkpt lat="47.40426" lon="-0.46403">
        <ele>89.6587</ele>
        <time>2012-10-13T08:48:16Z</time>
      </trkpt>
      <trkpt lat="47.40446" lon="-0.46395">
        <ele>91.9516</ele>
        <time>2012-10-13T08:48:24Z</time>
      </trkpt>
      <trkpt lat="47.40464" lon="-0.46395">
        <ele>94.3408</ele>
        <time>2012-10-13T08:48:32Z</time>
      </trkpt>
      <trkpt lat="47.405" lon="-0.46409">
        <ele>88.8464</ele>
        <time>2012-10-13T08:48:41Z</time>
      </trkpt>
      <trkpt lat="47.40514" lon="-0.46421">
        <ele>76.0029</ele>
        <time>2012-10-13T08:48:47Z</time>
      </trkpt>
      <trkpt lat="47.40534" lon="-0.46412">
        <ele>75.8533</ele>
        <time>2012-10-13T08:49:01Z</time>
      </trkpt>
      <trkpt lat="47.40564" lon="-0.46401">
        <ele>75.6225</ele>
        <time>2012-10-13T08:49:09Z</time>
      </trkpt>
      <trkpt lat="47.40598" lon="-0.46417">
        <ele>73.3028</ele>
        <time>2012-10-13T08:49:15Z</time>
      </trkpt>
      <trkpt lat="47.40637" lon="-0.46438">
        <ele>72.667</ele>
        <time>2012-10-13T08:49:22Z</time>
      </trkpt>
      <trkpt lat="47.40668" lon="-0.46455">
        <ele>72.7425</ele>
        <time>2012-10-13T08:49:28Z</time>
      </trkpt>
      <trkpt lat="47.40691" lon="-0.46444">
        <ele>72.4408</ele>
        <time>2012-10-13T08:49:35Z</time>
      </trkpt>
      <trkpt lat="47.40695" lon="-0.46399">
        <ele>72.7866</ele>
        <time>2012-10-13T08:49:41Z</time>
      </trkpt>
      <trkpt lat="47.40693" lon="-0.46368">
        <ele>77.0134</ele>
        <time>2012-10-13T08:49:46Z</time>
      </trkpt>
      <trkpt lat="47.40696" lon="-0.46315">
        <ele>75.5124</ele>
        <time>2012-10-13T08:49:52Z</time>
      </trkpt>
      <trkpt lat="47.40699" lon="-0.46266">
        <ele>75.4137</ele>
        <time>2012-10-13T08:49:58Z</time>
      </trkpt>
      <trkpt lat="47.40702" lon="-0.46229">
        <ele>74.955</ele>
        <time>2012-10-13T08:50:03Z</time>
      </trkpt>
      <trkpt lat="47.40702" lon="-0.46175">
        <ele>81.9208</ele>
        <time>2012-10-13T08:50:11Z</time>
      </trkpt>
      <trkpt lat="47.40687" lon="-0.46152">
        <ele>84.3529</ele>
        <time>2012-10-13T08:50:16Z</time>
      </trkpt>
      <trkpt lat="47.40666" lon="-0.46123">
        <ele>81.1928</ele>
        <time>2012-10-13T08:50:21Z</time>
      </trkpt>
      <trkpt lat="47.4064" lon="-0.46091">
        <ele>80.8268</ele>
        <time>2012-10-13T08:50:27Z</time>
      </trkpt>
      <trkpt lat="47.40615" lon="-0.46062">
        <ele>84.6828</ele>
        <time>2012-10-13T08:50:33Z</time>
      </trkpt>
      <trkpt lat="47.40595" lon="-0.46038">
        <ele>88.9037</ele>
        <time>2012-10-13T08:50:38Z</time>
      </trkpt>
      <trkpt lat="47.40578" lon="-0.46012">
        <ele>97.4496</ele>
        <time>2012-10-13T08:50:44Z</time>
      </trkpt>
      <trkpt lat="47.40545" lon="-0.45985">
        <ele>94.5355</ele>
        <time>2012-10-13T08:50:50Z</time>
      </trkpt>
      <trkpt lat="47.40525" lon="-0.45939">
        <ele>90.0812</ele>
        <time>2012-10-13T08:50:57Z</time>
      </trkpt>
      <trkpt lat="47.4052" lon="-0.45907">
        <ele>90.8995</ele>
        <time>2012-10-13T08:51:02Z</time>
      </trkpt>
      <trkpt lat="47.40505" lon="-0.45866">
        <ele>88.6613</ele>
        <time>2012-10-13T08:51:08Z</time>
      </trkpt>
      <trkpt lat="47.40496" lon="-0.45836">
        <ele>89.9271</ele>
        <time>2012-10-13T08:51:13Z</time>
      </trkpt>
      <trkpt lat="47.40491" lon="-0.45791">
        <ele>101.093</ele>
        <time>2012-10-13T08:51:20Z</time>
      </trkpt>
      <trkpt lat="47.40472" lon="-0.45708">
        <ele>108.168</ele>
        <time>2012-10-13T08:51:30Z</time>
      </trkpt>
      <trkpt lat="47.40467" lon="-0.45661">
        <ele>108.123</ele>
        <time>2012-10-13T08:51:35Z</time>
      </trkpt>
      <trkpt lat="47.40461" lon="-0.45611">
        <ele>111.308</ele>
        <time>2012-10-13T08:51:41Z</time>
      </trkpt>
      <trkpt lat="47.40447" lon="-0.45575">
        <ele>107.398</ele>
        <time>2012-10-13T08:51:46Z</time>
      </trkpt>
      <trkpt lat="47.40433" lon="-0.4554">
        <ele>102.916</ele>
        <time>2012-10-13T08:51:52Z</time>
      </trkpt>
      <trkpt lat="47.40418" lon="-0.45535">
        <ele>106.618</ele>
        <time>2012-10-13T08:51:59Z</time>
      </trkpt>
      <trkpt lat="47.4039" lon="-0.45518">
        <ele>95.8343</ele>
        <time>2012-10-13T08:52:07Z</time>
      </trkpt>
      <trkpt lat="47.40377" lon="-0.45481">
        <ele>99.2562</ele>
        <time>2012-10-13T08:52:14Z</time>
      </trkpt>
      <trkpt lat="47.40349" lon="-0.45461">
        <ele>95.6517</ele>
        <time>2012-10-13T08:52:21Z</time>
      </trkpt>
      <trkpt lat="47.40319" lon="-0.45466">
        <ele>92.1778</ele>
        <time>2012-10-13T08:52:27Z</time>
      </trkpt>
      <trkpt lat="47.40286" lon="-0.4548">
        <ele>90.3112</ele>
        <time>2012-10-13T08:52:34Z</time>
      </trkpt>
      <trkpt lat="47.40255" lon="-0.45495">
        <ele>86.0126</ele>
        <time>2012-10-13T08:52:41Z</time>
      </trkpt>
      <trkpt lat="47.40237" lon="-0.45507">
        <ele>85.0646</ele>
        <time>2012-10-13T08:52:46Z</time>
      </trkpt>
      <trkpt lat="47.40213" lon="-0.45491">
        <ele>83.3428</ele>
        <time>2012-10-13T08:52:52Z</time>
      </trkpt>
      <trkpt lat="47.40184" lon="-0.45467">
        <ele>82.4877</ele>
        <time>2012-10-13T08:52:58Z</time>
      </trkpt>
      <trkpt lat="47.40161" lon="-0.45448">
        <ele>82.2272</ele>
        <time>2012-10-13T08:53:03Z</time>
      </trkpt>
      <trkpt lat="47.40141" lon="-0.45424">
        <ele>81.2439</ele>
        <time>2012-10-13T08:53:08Z</time>
      </trkpt>
      <trkpt lat="47.40129" lon="-0.45375">
        <ele>78.6731</ele>
        <time>2012-10-13T08:53:14Z</time>
      </trkpt>
      <trkpt lat="47.40129" lon="-0.45315">
        <ele>78.7952</ele>
        <time>2012-10-13T08:53:20Z</time>
      </trkpt>
      <trkpt lat="47.40116" lon="-0.45265">
        <ele>80.6819</ele>
        <time>2012-10-13T08:53:26Z</time>
      </trkpt>
      <trkpt lat="47.40104" lon="-0.45229">
        <ele>79.7076</ele>
        <time>2012-10-13T08:53:31Z</time>
      </trkpt>
      <trkpt lat="47.40096" lon="-0.45199">
        <ele>78.6354</ele>
        <time>2012-10-13T08:53:35Z</time>
      </trkpt>
      <trkpt lat="47.40087" lon="-0.45145">
        <ele>78.4979</ele>
        <time>2012-10-13T08:53:42Z</time>
      </trkpt>
      <trkpt lat="47.40079" lon="-0.45104">
        <ele>77.9817</ele>
        <time>2012-10-13T08:53:47Z</time>
      </trkpt>
      <trkpt lat="47.40073" lon="-0.45064">
        <ele>78.6476</ele>
        <time>2012-10-13T08:53:52Z</time>
      </trkpt>
      <trkpt lat="47.40071" lon="-0.45018">
        <ele>80.587</ele>
        <time>2012-10-13T08:53:58Z</time>
      </trkpt>
      <trkpt lat="47.40075" lon="-0.44977">
        <ele>82.1154</ele>
        <time>2012-10-13T08:54:04Z</time>
      </trkpt>
      <trkpt lat="47.40074" lon="-0.4494">
        <ele>87.5998</ele>
        <time>2012-10-13T08:54:12Z</time>
      </trkpt>
      <trkpt lat="47.4003" lon="-0.44947">
        <ele>86.3102</ele>
        <time>2012-10-13T08:54:22Z</time>
      </trkpt>
      <trkpt lat="47.39999" lon="-0.44956">
        <ele>85.1928</ele>
        <time>2012-10-13T08:54:29Z</time>
      </trkpt>
      <trkpt lat="47.39965" lon="-0.44976">
        <ele>83.2922</ele>
        <time>2012-10-13T08:54:36Z</time>
      </trkpt>
      <trkpt lat="47.3995" lon="-0.44953">
        <ele>83.2459</ele>
        <time>2012-10-13T08:54:42Z</time>
      </trkpt>
      <trkpt lat="47.39943" lon="-0.4492">
        <ele>84.5984</ele>
        <time>2012-10-13T08:54:47Z</time>
      </trkpt>
      <trkpt lat="47.39932" lon="-0.44865">
        <ele>83.1613</ele>
        <time>2012-10-13T08:54:54Z</time>
      </trkpt>
      <trkpt lat="47.39923" lon="-0.44823">
        <ele>83.806</ele>
        <time>2012-10-13T08:55:01Z</time>
      </trkpt>
      <trkpt lat="47.39922" lon="-0.44799">
        <ele>85.4882</ele>
        <time>2012-10-13T08:55:07Z</time>
      </trkpt>
      <trkpt lat="47.39919" lon="-0.44753">
        <ele>88.839</ele>
        <time>2012-10-13T08:55:14Z</time>
      </trkpt>
      <trkpt lat="47.39914" lon="-0.44707">
        <ele>89.0428</ele>
        <time>2012-10-13T08:55:21Z</time>
      </trkpt>
      <trkpt lat="47.39911" lon="-0.44667">
        <ele>89.4109</ele>
        <time>2012-10-13T08:55:27Z</time>
      </trkpt>
      <trkpt lat="47.39906" lon="-0.44623">
        <ele>92.2992</ele>
        <time>2012-10-13T08:55:34Z</time>
      </trkpt>
      <trkpt lat="47.39898" lon="-0.44578">
        <ele>94.9188</ele>
        <time>2012-10-13T08:55:41Z</time>
      </trkpt>
      <trkpt lat="47.3989" lon="-0.44531">
        <ele>93.4943</ele>
        <time>2012-10-13T08:55:48Z</time>
      </trkpt>
      <trkpt lat="47.39877" lon="-0.44506">
        <ele>96.7986</ele>
        <time>2012-10-13T08:55:53Z</time>
      </trkpt>
      <trkpt lat="47.39854" lon="-0.44495">
        <ele>96.9038</ele>
        <time>2012-10-13T08:55:58Z</time>
      </trkpt>
      <trkpt lat="47.3983" lon="-0.44485">
        <ele>97.1382</ele>
        <time>2012-10-13T08:56:03Z</time>
      </trkpt>
      <trkpt lat="47.39806" lon="-0.44464">
        <ele>94.1751</ele>
        <time>2012-10-13T08:56:09Z</time>
      </trkpt>
      <trkpt lat="47.39781" lon="-0.4442">
        <ele>97.5663</ele>
        <time>2012-10-13T08:56:17Z</time>
      </trkpt>
      <trkpt lat="47.39771" lon="-0.44384">
        <ele>102.531</ele>
        <time>2012-10-13T08:56:23Z</time>
      </trkpt>
      <trkpt lat="47.39758" lon="-0.44344">
        <ele>101.308</ele>
        <time>2012-10-13T08:56:29Z</time>
      </trkpt>
      <trkpt lat="47.39749" lon="-0.44306">
        <ele>105.507</ele>
        <time>2012-10-13T08:56:35Z</time>
      </trkpt>
      <trkpt lat="47.39741" lon="-0.44275">
        <ele>107.491</ele>
        <time>2012-10-13T08:56:40Z</time>
      </trkpt>
      <trkpt lat="47.39733" lon="-0.44251">
        <ele>109.733</ele>
        <time>2012-10-13T08:56:46Z</time>
      </trkpt>
      <trkpt lat="47.39723" lon="-0.44226">
        <ele>107.409</ele>
        <time>2012-10-13T08:56:54Z</time>
      </trkpt>
      <trkpt lat="47.39714" lon="-0.44188">
        <ele>106.064</ele>
        <time>2012-10-13T08:57:04Z</time>
      </trkpt>
      <trkpt lat="47.3971" lon="-0.44161">
        <ele>107.697</ele>
        <time>2012-10-13T08:57:13Z</time>
      </trkpt>
      <trkpt lat="47.39708" lon="-0.44147">
        <ele>112.293</ele>
        <time>2012-10-13T08:57:19Z</time>
      </trkpt>
      <trkpt lat="47.39701" lon="-0.44105">
        <ele>117.546</ele>
        <time>2012-10-13T08:57:29Z</time>
      </trkpt>
      <trkpt lat="47.39693" lon="-0.44061">
        <ele>119.062</ele>
        <time>2012-10-13T08:57:37Z</time>
      </trkpt>
      <trkpt lat="47.39687" lon="-0.44032">
        <ele>126.734</ele>
        <time>2012-10-13T08:57:42Z</time>
      </trkpt>
      <trkpt lat="47.39687" lon="-0.44003">
        <ele>126.33</ele>
        <time>2012-10-13T08:57:48Z</time>
      </trkpt>
      <trkpt lat="47.39688" lon="-0.43957">
        <ele>138.334</ele>
        <time>2012-10-13T08:57:56Z</time>
      </trkpt>
      <trkpt lat="47.39689" lon="-0.43923">
        <ele>140.789</ele>
        <time>2012-10-13T08:58:03Z</time>
      </trkpt>
      <trkpt lat="47.39694" lon="-0.43897">
        <ele>135.69</ele>
        <time>2012-10-13T08:58:08Z</time>
      </trkpt>
      <trkpt lat="47.39691" lon="-0.43864">
        <ele>125.097</ele>
        <time>2012-10-13T08:58:14Z</time>
      </trkpt>
      <trkpt lat="47.39684" lon="-0.43826">
        <ele>119.352</ele>
        <time>2012-10-13T08:58:21Z</time>
      </trkpt>
      <trkpt lat="47.39672" lon="-0.43796">
        <ele>120.183</ele>
        <time>2012-10-13T08:58:28Z</time>
      </trkpt>
      <trkpt lat="47.39649" lon="-0.43778">
        <ele>122.293</ele>
        <time>2012-10-13T08:58:37Z</time>
      </trkpt>
      <trkpt lat="47.39625" lon="-0.43767">
        <ele>125.673</ele>
        <time>2012-10-13T08:58:48Z</time>
      </trkpt>
      <trkpt lat="47.39611" lon="-0.43759">
        <ele>125.579</ele>
        <time>2012-10-13T08:58:55Z</time>
      </trkpt>
      <trkpt lat="47.39597" lon="-0.43754">
        <ele>127.408</ele>
        <time>2012-10-13T08:59:01Z</time>
      </trkpt>
      <trkpt lat="47.39581" lon="-0.43734">
        <ele>133.502</ele>
        <time>2012-10-13T08:59:11Z</time>
      </trkpt>
      <trkpt lat="47.39558" lon="-0.43718">
        <ele>141.546</ele>
        <time>2012-10-13T08:59:23Z</time>
      </trkpt>
      <trkpt lat="47.39547" lon="-0.43711">
        <ele>141.245</ele>
        <time>2012-10-13T08:59:28Z</time>
      </trkpt>
      <trkpt lat="47.39528" lon="-0.43705">
        <ele>139.143</ele>
        <time>2012-10-13T08:59:35Z</time>
      </trkpt>
      <trkpt lat="47.39518" lon="-0.43694">
        <ele>134.833</ele>
        <time>2012-10-13T08:59:43Z</time>
      </trkpt>
      <trkpt lat="47.39501" lon="-0.43673">
        <ele>138.047</ele>
        <time>2012-10-13T09:00:00Z</time>
      </trkpt>
      <trkpt lat="47.3948" lon="-0.4368">
        <ele>136.142</ele>
        <time>2012-10-13T09:00:09Z</time>
      </trkpt>
      <trkpt lat="47.39465" lon="-0.43691">
        <ele>134.436</ele>
        <time>2012-10-13T09:00:18Z</time>
      </trkpt>
      <trkpt lat="47.39449" lon="-0.437">
        <ele>134.497</ele>
        <time>2012-10-13T09:00:32Z</time>
      </trkpt>
      <trkpt lat="47.39409" lon="-0.43684">
        <ele>134.663</ele>
        <time>2012-10-13T09:00:45Z</time>
      </trkpt>
      <trkpt lat="47.39399" lon="-0.43717">
        <ele>127.071</ele>
        <time>2012-10-13T09:00:53Z</time>
      </trkpt>
      <trkpt lat="47.39403" lon="-0.43722">
        <ele>125.844</ele>
        <time>2012-10-13T09:00:57Z</time>
      </trkpt>
      <trkpt lat="47.39401" lon="-0.43747">
        <ele>124.625</ele>
        <time>2012-10-13T09:02:52Z</time>
      </trkpt>
      <trkpt lat="47.39401" lon="-0.43764">
        <ele>124.561</ele>
        <time>2012-10-13T09:03:02Z</time>
      </trkpt>
      <trkpt lat="47.394" lon="-0.43779">
        <ele>124.401</ele>
        <time>2012-10-13T09:03:11Z</time>
      </trkpt>
      <trkpt lat="47.39399" lon="-0.43739">
        <ele>124.031</ele>
        <time>2012-10-13T09:03:43Z</time>
      </trkpt>
      <trkpt lat="47.39406" lon="-0.43728">
        <ele>123.924</ele>
        <time>2012-10-13T09:03:57Z</time>
      </trkpt>
      <trkpt lat="47.39406" lon="-0.43728">
        <ele>77.2</ele>
        <time>2012-10-13T09:04:16Z</time>
      </trkpt>
      <trkpt lat="47.39406" lon="-0.43728">
        <ele>77.2</ele>
        <time>2012-10-13T09:04:21Z</time>
      </trkpt>
    </trkseg>
  </trk>
</gpx>